Flight Track Log - Related Links

Times and Time Zones

All times are in EDT time to prevent confusion due to time zone crossing. See the AFL150 flight status page for this flight to view local times or setup timezone preferences in your user account.

Time Position Orientation Groundspeed Altitude Reporting Facility
EDT Latitude Longitude Course Direction KTS MPH feet Rate Location/Type
Sat 06:23:17 55.9640 37.3650 256° West 173 199 1,800  Level FlightAware ADS-B
Sat 06:23:37 55.9600 37.3380 255° West 175 201 2,600 1,950 Climbing FlightAware ADS-B
Sat 06:23:57 55.9560 37.3090 256° West 182 209 3,100 1,650 Climbing FlightAware ADS-B
Sat 06:24:17 55.9520 37.2800 256° West 180 207 3,700 1,350 Climbing FlightAware ADS-B
Sat 06:24:37 55.9480 37.2520 256° West 187 215 4,000 750 Climbing FlightAware ADS-B
Sat 06:24:57 55.9440 37.2190 258° West 212 244 4,200 600 Climbing FlightAware ADS-B
Sat 06:25:07 55.9440 37.2010 270° West 226 260 4,300 800 Climbing FlightAware ADS-B
Sat 06:25:27 55.9480 37.1600 280° West 252 290 4,600 1,500 Climbing FlightAware ADS-B
Sat 06:25:47 55.9530 37.1190 282° West 260 299 5,300 2,400 Climbing FlightAware ADS-B
Sat 06:26:07 55.9580 37.0770 282° West 261 300 6,200 2,743 Climbing FlightAware ADS-B
Sat 06:26:22 55.9610 37.0440 279° West 265 305 6,900 2,571 Climbing FlightAware ADS-B
Sat 06:26:42 55.9650 37.0020 280° West 268 308 7,700 2,400 Climbing FlightAware ADS-B
Sat 06:27:02 55.9730 36.9600 289° West 270 311 8,500 2,550 Climbing FlightAware ADS-B
Sat 06:27:22 55.9850 36.9200 298° West 272 313 9,400 2,571 Climbing FlightAware ADS-B
Sat 06:27:37 55.9940 36.8900 298° West 275 316 10,000 1,867 Climbing FlightAware ADS-B
Sat 06:28:07 56.0110 36.8280 296° West 294 338 10,800 1,543 Climbing FlightAware ADS-B
Sat 06:28:47 56.0370 36.7360 297° West 322 371 11,800 1,944 Climbing FlightAware ADS-B
Sat 06:29:18 56.0570 36.6640 296° West 322 371 13,100 2,400 Climbing FlightAware ADS-B
Sat 06:29:52 56.0800 36.5790 296° West 330 380 14,400 1,739 Climbing FlightAware ADS-B
Sat 06:30:27 56.1050 36.4910 297° West 352 405 15,100 1,600 Climbing FlightAware ADS-B
Sat 06:31:07 56.1330 36.3880 296° West 361 415 16,400 2,057 Climbing FlightAware ADS-B
Sat 06:31:37 56.1560 36.3030 296° West 368 423 17,500 2,031 Climbing FlightAware ADS-B
Sat 06:32:12 56.1820 36.2060 296° West 372 428 18,600 1,920 Climbing FlightAware ADS-B
Sat 06:32:52 56.2130 36.0940 296° West 377 434 19,900 1,840 Climbing FlightAware ADS-B
Sat 06:33:27 56.2390 35.9950 295° West 384 442 20,900 1,754 Climbing FlightAware ADS-B
Sat 06:33:57 56.2620 35.9100 296° West 388 447 21,800 1,714 Climbing FlightAware ADS-B
Sat 06:34:37 56.3000 35.7980 301° West 393 452 22,900 1,543 Climbing FlightAware ADS-B
Sat 06:35:07 56.3420 35.7360 321° Northwest 398 458 23,600 1,371 Climbing FlightAware ADS-B
Sat 06:35:47 56.3990 35.6490 320° Northwest 404 465 24,500 1,371 Climbing FlightAware ADS-B
Sat 06:36:17 56.4420 35.5840 320° Northwest 407 468 25,200 1,385 Climbing FlightAware ADS-B
Sat 06:36:52 56.4920 35.5060 319° Northwest 414 476 26,000 1,280 Climbing FlightAware ADS-B
Sat 06:37:32 56.5510 35.4150 320° Northwest 420 483 26,800 1,200 Climbing FlightAware ADS-B
Sat 06:38:07 56.6010 35.3370 319° Northwest 424 488 27,500 1,200 Climbing FlightAware ADS-B
Sat 06:38:37 56.6480 35.2650 320° Northwest 426 490 28,100 1,200 Climbing FlightAware ADS-B
Sat 06:39:17 56.7080 35.1720 320° Northwest 429 494 28,900 1,120 Climbing FlightAware ADS-B
Sat 06:39:52 56.7600 35.0890 319° Northwest 430 495 29,500 1,015 Climbing FlightAware ADS-B
Sat 06:40:22 56.8050 35.0180 319° Northwest 433 498 30,000 1,015 Climbing FlightAware ADS-B
Sat 06:40:57 56.8590 34.9330 319° Northwest 435 501 30,600 880 Climbing FlightAware ADS-B
Sat 06:41:37 56.9190 34.8370 319° Northwest 440 506 31,100 800 Climbing FlightAware ADS-B
Sat 06:42:12 56.9730 34.7510 319° Northwest 445 512 31,600 738 Climbing FlightAware ADS-B
Sat 06:42:42 57.0200 34.6760 319° Northwest 448 516 31,900 686 Climbing FlightAware ADS-B
Sat 06:43:22 57.0820 34.5760 319° Northwest 452 520 32,400 686 Climbing FlightAware ADS-B
Sat 06:43:52 57.1290 34.4990 318° Northwest 456 525 32,700 646 Climbing FlightAware ADS-B
Sat 06:44:27 57.1840 34.4110 319° Northwest 459 528 33,100 600 Climbing FlightAware ADS-B
Sat 06:45:02 57.2400 34.3190 318° Northwest 464 534 33,400 480 Climbing FlightAware ADS-B
Sat 06:45:42 57.3040 34.2140 318° Northwest 470 541 33,700 429 Climbing FlightAware ADS-B
Sat 06:46:12 57.3540 34.1320 319° Northwest 471 542 33,900 686 Climbing FlightAware ADS-B
Sat 06:46:52 57.4190 34.0250 318° Northwest 471 542 34,500 800 Climbing FlightAware ADS-B
Sat 06:47:27 57.4750 33.9310 318° Northwest 471 542 34,900 738 Climbing FlightAware ADS-B
Sat 06:47:57 57.5220 33.8530 318° Northwest 470 541 35,300 831 Climbing FlightAware ADS-B
Sat 06:48:32 57.5800 33.7560 318° Northwest 466 536 35,800 560 Climbing FlightAware ADS-B
Sat 06:49:12 57.6440 33.6490 318° Northwest 470 541 36,000 171 Climbing FlightAware ADS-B
Sat 06:49:42 57.6930 33.5660 318° Northwest 475 547 36,000  Level FlightAware ADS-B
Sat 06:50:17 57.7500 33.4730 319° Northwest 474 545 36,000  Level FlightAware ADS-B
Sat 06:50:52 57.8120 33.3880 324° Northwest 472 543 36,000  Level FlightAware ADS-B
Sat 06:51:32 57.8820 33.3000 326° Northwest 470 541 36,000  Level FlightAware ADS-B
Sat 06:52:02 57.9350 33.2310 325° Northwest 470 541 36,000  Level FlightAware ADS-B
Sat 06:52:47 58.0160 33.1230 325° Northwest 469 540 36,000  Level FlightAware ADS-B
Sat 06:53:27 58.0870 33.0270 324° Northwest 470 541 36,000  Level FlightAware ADS-B
Sat 06:54:02 58.1410 32.9540 325° Northwest 470 541 36,000  Level FlightAware ADS-B
Sat 06:54:48 58.2100 32.8590 324° Northwest 470 541 36,000  Level FlightAware ADS-B
Sat 06:55:24 58.2640 32.7840 324° Northwest 470 541 36,000  Level FlightAware ADS-B
Sat 06:56:00 58.3170 32.7100 324° Northwest 470 541 36,000  Level FlightAware ADS-B
Sat 06:56:37 58.3730 32.6330 324° Northwest 470 541 36,000  Level FlightAware ADS-B
Sat 06:57:14 58.4280 32.5570 324° Northwest 470 541 36,000  Level FlightAware ADS-B
Sat 06:57:51 58.4830 32.4800 324° Northwest 470 541 36,000  Level FlightAware ADS-B
Sat 06:58:28 58.5390 32.4030 324° Northwest 470 541 36,000  Level FlightAware ADS-B
Sat 06:59:04 58.5930 32.3280 324° Northwest 470 541 36,000  Level FlightAware ADS-B
Sat 06:59:38 58.6430 32.2570 324° Northwest 470 541 36,000  Level FlightAware ADS-B
Sat 07:00:35 58.8310 32.0000 325° Northwest 473 544 36,000  Level FlightAware ADS-B
Sat 07:01:11 58.8850 31.9240 324° Northwest 473 544 36,000  Level FlightAware ADS-B
Sat 07:01:47 58.9390 31.8470 324° Northwest 473 544 36,000  Level FlightAware ADS-B
Sat 07:02:22 59.0280 31.7170 323° Northwest 472 543 36,000  Level FlightAware ADS-B
Sat 07:02:57 59.0900 31.6280 324° Northwest 471 542 36,000  Level FlightAware ADS-B
Sat 07:03:34 59.1520 31.5280 320° Northwest 474 545 36,000  Level FlightAware ADS-B
Sat 07:03:54 59.1750 31.4630 305° West 479 551 36,000  Level FlightAware ADS-B
Sat 07:04:14 59.1920 31.3770 291° West 484 557 36,000  Level FlightAware ADS-B
Sat 07:04:51 59.2170 31.2310 289° West 485 558 36,000  Level FlightAware ADS-B
Sat 07:05:22 59.2400 31.1020 289° West 486 559 36,000  Level FlightAware ADS-B
Sat 07:05:56 59.2650 30.9530 288° West 487 560 36,000  Level FlightAware ADS-B
Sat 07:06:33 59.2910 30.7960 288° West 486 559 36,000  Level FlightAware ADS-B
Sat 07:07:06 59.3120 30.6700 288° West 486 559 36,000  Level FlightAware ADS-B
Sat 07:07:41 59.3360 30.5220 288° West 486 559 36,000  Level FlightAware ADS-B
Sat 07:08:17 59.3610 30.3670 288° West 486 559 36,000  Level FlightAware ADS-B
Sat 07:08:55 59.3870 30.2100 288° West 487 560 36,000  Level FlightAware ADS-B
Sat 07:09:31 59.4120 30.0560 288° West 489 563 36,000  Level FlightAware ADS-B
Sat 07:10:01 59.4330 29.9260 288° West 489 563 36,000  Level FlightAware ADS-B
Sat 07:10:36 59.4570 29.7800 288° West 490 564 36,000  Level FlightAware ADS-B
Sat 07:10:56 59.4700 29.6960 287° West 490 564 36,000  Level FlightAware ADS-B
Sat 07:11:56 59.5110 29.4380 287° West 490 564 36,000  Level FlightAware ADS-B
Sat 07:12:29 59.5320 29.3020 287° West 489 563 36,000  Level FlightAware ADS-B
Sat 07:13:06 59.5560 29.1450 287° West 487 560 36,000  Level FlightAware ADS-B
Sat 07:13:38 59.5770 29.0090 287° West 485 558 36,000  Level FlightAware ADS-B
Sat 07:14:15 59.6010 28.8500 287° West 486 559 36,000  Level FlightAware ADS-B
Sat 07:14:49 59.6230 28.7050 287° West 484 557 36,000  Level FlightAware ADS-B
Sat 07:15:25 59.6450 28.5580 287° West 484 557 36,000  Level FlightAware ADS-B
Sat 07:16:01 59.6670 28.4030 286° West 484 557 36,000  Level FlightAware ADS-B
Sat 07:16:33 59.6870 28.2620 286° West 485 558 36,000  Level FlightAware ADS-B
Sat 07:17:08 59.7080 28.1140 286° West 485 558 36,000  Level FlightAware ADS-B
Sat 07:17:45 59.7310 27.9560 286° West 485 558 36,000  Level FlightAware ADS-B
Sat 07:18:22 59.7520 27.8020 285° West 485 558 36,000  Level FlightAware ADS-B
Sat 07:18:53 59.7710 27.6670 286° West 485 558 36,000  Level FlightAware ADS-B
Sat 07:19:30 59.7920 27.5100 285° West 485 558 36,000  Level FlightAware ADS-B
Sat 07:20:06 59.8140 27.3550 286° West 486 559 36,000  Level FlightAware ADS-B
Sat 07:20:41 59.8340 27.2030 285° West 487 560 36,000  Level FlightAware ADS-B
Sat 07:21:12 59.8520 27.0660 285° West 488 562 36,000  Level FlightAware ADS-B
Sat 07:21:49 59.8730 26.9080 285° West 489 563 36,000  Level FlightAware ADS-B
Sat 07:22:25 59.8930 26.7550 285° West 488 562 36,000  Level FlightAware ADS-B
Sat 07:23:02 59.9140 26.5920 284° West 488 562 36,000  Level FlightAware ADS-B
Sat 07:23:33 59.9330 26.4570 286° West 485 558 36,000  Level FlightAware ADS-B
Sat 07:24:08 59.9600 26.3120 290° West 481 554 36,000  Level FlightAware ADS-B
Sat 07:24:45 59.9970 26.1650 297° West 477 549 36,000  Level FlightAware ADS-B
Sat 07:25:18 60.0340 26.0490 303° West 476 548 36,000  Level FlightAware ADS-B
Sat 07:25:51 60.0720 25.9220 301° West 475 547 36,000  Level FlightAware ADS-B
Sat 07:26:32 60.1190 25.7660 301° West 475 547 36,000  Level FlightAware ADS-B
Sat 07:27:02 60.1540 25.6520 302° West 477 549 36,000  Level FlightAware ADS-B
Sat 07:27:39 60.1950 25.5130 301° West 477 549 36,000  Level FlightAware ADS-B
Sat 07:28:16 60.2370 25.3740 301° West 478 550 36,000  Level FlightAware ADS-B
Sat 07:28:48 60.2740 25.2490 301° West 479 551 36,000  Level FlightAware ADS-B
Sat 07:29:23 60.3130 25.1170 301° West 480 552 36,000  Level FlightAware ADS-B
Sat 07:29:59 60.3540 24.9770 301° West 479 551 36,000  Level FlightAware ADS-B
Sat 07:30:36 60.3940 24.8360 300° West 478 550 36,000  Level FlightAware ADS-B
Sat 07:31:09 60.4310 24.7090 301° West 478 550 36,000  Level FlightAware ADS-B
Sat 07:31:46 60.4710 24.5690 300° West 479 551 36,000  Level FlightAware ADS-B
Sat 07:32:22 60.5130 24.4240 301° West 478 550 36,000  Level FlightAware ADS-B
Sat 07:32:53 60.5460 24.3090 300° West 477 549 36,000  Level FlightAware ADS-B
Sat 07:33:29 60.5860 24.1670 300° West 477 549 36,000  Level FlightAware ADS-B
Sat 07:34:05 60.6250 24.0280 300° West 476 548 36,000  Level FlightAware ADS-B
Sat 07:34:37 60.6590 23.9050 299° West 476 548 36,000  Level FlightAware ADS-B
Sat 07:35:07 60.6920 23.7870 300° West 476 548 36,000  Level FlightAware ADS-B
Sat 07:35:42 60.7290 23.6530 299° West 476 548 36,000  Level FlightAware ADS-B
Sat 07:36:19 60.7690 23.5060 299° West 476 548 36,000  Level FlightAware ADS-B
Sat 07:36:53 60.8060 23.3710 299° West 475 547 36,000  Level FlightAware ADS-B
Sat 07:37:30 60.8450 23.2250 299° West 477 549 36,000  Level FlightAware ADS-B
Sat 07:38:01 60.8780 23.1040 299° West 478 550 36,000  Level FlightAware ADS-B
Sat 07:38:39 60.9190 22.9490 299° West 478 550 36,000  Level FlightAware ADS-B
Sat 07:39:14 60.9560 22.8120 299° West 477 549 36,000  Level FlightAware ADS-B
Sat 07:39:46 60.9890 22.6850 298° West 477 549 36,000  Level FlightAware ADS-B
Sat 07:40:21 61.0260 22.5460 299° West 477 549 36,000  Level FlightAware ADS-B
Sat 07:40:59 61.0640 22.3990 298° West 477 549 36,000  Level FlightAware ADS-B
Sat 07:41:31 61.0960 22.2760 298° West 477 549 36,000  Level FlightAware ADS-B
Sat 07:42:07 61.1350 22.1230 298° West 479 551 36,000  Level FlightAware ADS-B
Sat 07:42:42 61.1670 21.9750 294° West 478 550 36,000  Level FlightAware ADS-B
Sat 07:43:17 61.2000 21.8310 295° West 477 549 36,000  Level FlightAware ADS-B
Sat 07:43:53 61.2340 21.6800 295° West 476 548 36,000  Level FlightAware ADS-B
Sat 07:44:26 61.2640 21.5430 295° West 477 549 36,000  Level FlightAware ADS-B
Sat 07:45:05 61.2990 21.3850 295° West 476 548 36,000  Level FlightAware ADS-B
Sat 07:45:40 61.3320 21.2380 295° West 475 547 36,000  Level FlightAware ADS-B
Sat 07:46:13 61.3610 21.1040 294° West 474 545 36,000  Level FlightAware ADS-B
Sat 07:46:47 61.3930 20.9580 295° West 473 544 36,000  Level FlightAware ADS-B
Sat 07:47:23 61.4250 20.8100 294° West 473 544 36,000  Level FlightAware ADS-B
Sat 07:47:58 61.4560 20.6630 294° West 474 545 36,000  Level FlightAware ADS-B
Sat 07:48:36 61.4890 20.5100 294° West 475 547 36,000  Level FlightAware ADS-B
Sat 07:49:08 61.5180 20.3700 294° West 476 548 36,000  Level FlightAware ADS-B
Sat 07:49:45 61.5510 20.2150 294° West 475 547 36,000  Level FlightAware ADS-B
Sat 07:49:54 61.5619 20.1635 294° West 475 547 36,000  Level FlightAware ADS-B
Sat 07:50:25 61.5891 20.0324 294° West 471 542 36,000  Level FlightAware ADS-B
Sat 07:51:27 61.6427 19.7724 294° West 472 543 36,000  Level FlightAware ADS-B
Sat 07:51:57 61.6685 19.6458 293° West 473 544 36,000  Level FlightAware ADS-B
Sat 07:52:27 61.6949 19.5156 293° West 473 544 36,000  Level FlightAware ADS-B
Sat 07:53:07 61.7280 19.3510 293° West 472 543 36,000  Level FlightAware ADS-B
Sat 07:53:38 61.7547 19.2173 293° West 472 543 36,000  Level FlightAware ADS-B
Sat 07:54:17 61.7877 19.0510 293° West 472 543 36,000  Level FlightAware ADS-B
Sat 07:54:48 61.8138 18.9186 293° West 476 548 36,000  Level FlightAware ADS-B
Sat 07:55:27 61.8465 18.7512 293° West 476 548 36,000  Level FlightAware ADS-B
Sat 07:55:58 61.8721 18.6195 292° West 475 547 36,000  Level FlightAware ADS-B
Sat 07:56:32 61.9001 18.4734 292° West 473 544 36,000  Level FlightAware ADS-B
Sat 07:57:02 61.9253 18.3421 292° West 472 543 36,000  Level FlightAware ADS-B
Sat 07:57:33 61.9498 18.2134 292° West 471 542 36,000  Level FlightAware ADS-B
Sat 07:58:12 61.9818 18.0439 292° West 467 537 36,000  Level FlightAware ADS-B
Sat 07:58:43 62.0063 17.9136 292° West 466 536 36,000  Level FlightAware ADS-B
Sat 07:59:22 62.0376 17.7447 292° West 467 537 36,000  Level FlightAware ADS-B
Sat 07:59:52 62.0615 17.6148 292° West 466 536 36,000  Level FlightAware ADS-B
Sat 08:00:23 62.0856 17.4826 291° West 467 537 36,000  Level FlightAware ADS-B
Sat 08:01:03 62.1169 17.3101 291° West 466 536 36,000  Level FlightAware ADS-B
Sat 08:01:59 62.1560 17.0900 291° West 462 532 36,000  Level FlightAware ADS-B
Sat 08:02:12 62.1698 17.0156 292° West 459 528 36,000  Level FlightAware ADS-B
Sat 08:02:43 62.1930 16.8850 291° West 458 527 36,000  Level FlightAware ADS-B
Sat 08:03:13 62.2158 16.7557 291° West 456 525 36,000  Level FlightAware ADS-B
Sat 08:03:43 62.2378 16.6299 291° West 454 522 36,000  Level FlightAware ADS-B
Sat 08:04:14 62.2601 16.5019 291° West 450 518 36,000  Level FlightAware ADS-B
Sat 08:04:44 62.2816 16.3777 290° West 449 517 36,000  Level FlightAware ADS-B
Sat 08:05:15 62.3038 16.2489 290° West 449 517 36,000  Level FlightAware ADS-B
Sat 08:05:55 62.3325 16.0801 290° West 451 519 36,000  Level FlightAware ADS-B
Sat 08:06:34 62.3608 15.9123 290° West 450 518 36,000  Level FlightAware ADS-B
Sat 08:07:13 62.3882 15.7483 290° West 450 518 36,000  Level FlightAware ADS-B
Sat 08:07:44 62.4096 15.6187 290° West 448 516 36,000  Level FlightAware ADS-B
Sat 08:08:23 62.4370 15.4528 290° West 448 516 36,000  Level FlightAware ADS-B
Sat 08:08:54 62.4576 15.3267 290° West 446 513 36,000  Level FlightAware ADS-B
Sat 08:09:33 62.4848 15.1584 289° West 446 513 36,000  Level FlightAware ADS-B
Sat 08:10:04 62.5051 15.0313 289° West 446 513 36,000  Level FlightAware ADS-B
Sat 08:10:37 62.5275 14.8914 289° West 446 513 36,000  Level FlightAware ADS-B
Sat 08:11:08 62.5478 14.7630 289° West 446 513 36,000  Level FlightAware ADS-B
Sat 08:11:38 62.5681 14.6337 289° West 445 512 36,000  Level FlightAware ADS-B
Sat 08:12:16 62.5932 14.4731 289° West 442 509 36,000  Level FlightAware ADS-B
Sat 08:12:47 62.6131 14.3442 289° West 439 505 36,000  Level FlightAware ADS-B
Sat 08:13:17 62.6321 14.2205 289° West 436 502 36,000  Level FlightAware ADS-B
Sat 08:13:47 62.6513 14.0949 288° West 433 498 36,000  Level FlightAware ADS-B
Sat 08:14:49 62.6880 13.8510 288° West 436 502 36,000  Level FlightAware ADS-B
Sat 08:15:15 62.7064 13.7282 288° West 436 502 36,000  Level FlightAware ADS-B
Sat 08:15:46 62.7252 13.6015 288° West 438 504 36,000  Level FlightAware ADS-B
Sat 08:16:16 62.7436 13.4763 288° West 439 505 36,000  Level FlightAware ADS-B
Sat 08:16:55 62.7680 13.3087 288° West 439 505 36,000  Level FlightAware ADS-B
Sat 08:17:41 62.7940 13.1300 288° West 441 507 36,000  Level FlightAware ADS-B
Sat 08:18:17 62.8150 12.9840 288° West 439 505 36,000  Level FlightAware ADS-B
Sat 08:18:53 62.8370 12.8280 287° West 439 505 36,000  Level FlightAware ADS-B
Sat 08:19:28 62.8580 12.6770 287° West 440 506 36,000  Level FlightAware ADS-B
Sat 08:19:54 62.8753 12.5524 287° West 440 506 36,000  Level FlightAware ADS-B
Sat 08:20:38 62.9010 12.3660 287° West 441 507 36,000  Level FlightAware ADS-B
Sat 08:21:15 62.9210 12.2210 287° West 440 506 36,000  Level FlightAware ADS-B
Sat 08:21:46 62.9403 12.0769 286° West 438 504 36,000  Level FlightAware ADS-B
Sat 08:22:24 62.9600 11.9280 286° West 439 505 36,000  Level FlightAware ADS-B
Sat 08:22:26 62.9632 11.9059 288° West 438 504 36,000  Level FlightAware ADS-B
Sat 08:23:00 62.9800 11.7770 286° West 440 506 36,000  Level FlightAware ADS-B
Sat 08:23:06 62.9864 11.7305 287° West 437 503 36,000  Level FlightAware ADS-B
Sat 08:23:37 63.0035 11.6005 286° West 435 501 36,000  Level FlightAware ADS-B
Sat 08:24:07 63.0202 11.4722 286° West 433 498 36,000  Level FlightAware ADS-B
Sat 08:24:43 63.0360 11.3500 286° West 433 498 36,000  Level FlightAware ADS-B
Sat 08:25:19 63.0570 11.1850 286° West 432 497 36,000  Level FlightAware ADS-B
Sat 08:25:55 63.0760 11.0330 285° West 431 496 36,000  Level FlightAware ADS-B
Sat 08:26:29 63.0940 10.8900 286° West 431 496 36,000  Level FlightAware ADS-B
Sat 08:27:05 63.1130 10.7400 286° West 432 497 36,000  Level FlightAware ADS-B
Sat 08:27:37 63.1300 10.5990 285° West 433 498 36,000  Level FlightAware ADS-B
Sat 08:28:10 63.1470 10.4600 285° West 433 498 36,000  Level FlightAware ADS-B
Sat 08:28:50 63.1680 10.2870 285° West 435 501 36,000  Level FlightAware ADS-B
Sat 08:29:24 63.1860 10.1410 285° West 437 503 36,000  Level FlightAware ADS-B
Sat 08:29:58 63.2020 9.9980 284° West 437 503 36,000  Level FlightAware ADS-B
Sat 08:30:31 63.2190 9.8530 285° West 435 501 36,000  Level FlightAware ADS-B
Sat 08:31:09 63.2380 9.6900 285° West 434 499 36,000  Level FlightAware ADS-B
Sat 08:31:44 63.2560 9.5390 285° West 433 498 36,000  Level FlightAware ADS-B
Sat 08:32:20 63.2730 9.3820 284° West 432 497 36,000  Level FlightAware ADS-B
Sat 08:32:53 63.2890 9.2410 284° West 431 496 36,000  Level FlightAware ADS-B
Sat 08:33:29 63.3060 9.0950 285° West 431 496 36,000  Level FlightAware ADS-B
Sat 08:34:05 63.3230 8.9330 283° West 430 495 36,000  Level FlightAware ADS-B
Sat 08:34:40 63.3390 8.7860 284° West 429 494 36,000  Level FlightAware ADS-B
Sat 08:35:10 63.3530 8.6570 284° West 429 494 36,000  Level FlightAware ADS-B
Sat 08:35:49 63.3710 8.4870 283° West 429 494 36,000  Level FlightAware ADS-B
Sat 08:36:24 63.3870 8.3410 284° West 430 495 36,000  Level FlightAware ADS-B
Sat 08:37:01 63.4030 8.1810 283° West 431 496 36,000  Level FlightAware ADS-B
Sat 08:37:33 63.4180 8.0390 283° West 431 496 36,000  Level FlightAware ADS-B
Sat 08:38:08 63.4330 7.8870 283° West 431 496 36,000  Level FlightAware ADS-B
Sat 08:38:46 63.4490 7.7270 283° West 430 495 36,000  Level FlightAware ADS-B
Sat 08:39:18 63.4630 7.5890 283° West 430 495 36,000  Level FlightAware ADS-B
Sat 08:39:54 63.4790 7.4330 283° West 428 493 36,000  Level FlightAware ADS-B
Sat 08:40:28 63.4930 7.2820 282° West 429 494 36,000  Level FlightAware ADS-B
Sat 08:41:06 63.5090 7.1220 283° West 431 496 36,000  Level FlightAware ADS-B
Sat 08:41:38 63.5220 6.9840 282° West 433 498 36,000  Level FlightAware ADS-B
Sat 08:42:13 63.5370 6.8240 282° West 435 501 36,000  Level FlightAware ADS-B
Sat 08:42:51 63.5520 6.6610 282° West 436 502 36,000  Level FlightAware ADS-B
Sat 08:43:23 63.5650 6.5160 281° West 437 503 36,000  Level FlightAware ADS-B
Sat 08:43:58 63.5790 6.3620 282° West 439 505 36,000  Level FlightAware ADS-B
Sat 08:44:34 63.5930 6.2000 281° West 440 506 36,000  Level FlightAware ADS-B
Sat 08:45:10 63.6070 6.0410 281° West 441 507 36,000  Level FlightAware ADS-B
Sat 08:45:44 63.6200 5.8870 281° West 440 506 36,000  Level FlightAware ADS-B
Sat 08:46:20 63.6340 5.7310 281° West 439 505 36,000  Level FlightAware ADS-B
Sat 08:46:56 63.6480 5.5670 281° West 438 504 36,000  Level FlightAware ADS-B
Sat 08:47:28 63.6590 5.4240 280° West 437 503 36,000  Level FlightAware ADS-B
Sat 08:48:03 63.6720 5.2680 281° West 436 502 36,000  Level FlightAware ADS-B
Sat 08:48:39 63.6850 5.1090 281° West 436 502 36,000  Level FlightAware ADS-B
Sat 08:49:16 63.6980 4.9440 280° West 435 501 36,000  Level FlightAware ADS-B
Sat 08:49:48 63.7090 4.8110 281° West 434 499 36,000  Level FlightAware ADS-B
Sat 08:50:25 63.7220 4.6420 280° West 432 497 36,000  Level FlightAware ADS-B
Sat 08:51:05 63.7360 4.4590 280° West 433 498 36,000  Level FlightAware ADS-B
Sat 08:51:35 63.7460 4.3280 280° West 433 498 36,000  Level FlightAware ADS-B
Sat 08:52:14 63.7590 4.1500 279° West 433 498 36,000  Level FlightAware ADS-B
Sat 08:52:51 63.7710 3.9860 279° West 434 499 36,000  Level FlightAware ADS-B
Sat 08:53:26 63.7810 3.8360 279° West 434 499 36,000  Level FlightAware ADS-B
Sat 08:54:02 63.7930 3.6700 279° West 433 498 36,000  Level FlightAware ADS-B
Sat 08:54:34 63.8030 3.5270 279° West 434 499 36,000  Level FlightAware ADS-B
Sat 08:55:10 63.8140 3.3650 279° West 434 499 36,000  Level FlightAware ADS-B
Sat 08:55:45 63.8240 3.2090 278° West 435 501 36,000  Level FlightAware ADS-B
Sat 08:56:26 63.8360 3.0270 279° West 436 502 36,000  Level FlightAware ADS-B
Sat 08:57:03 63.8470 2.8610 279° West 435 501 36,000  Level FlightAware ADS-B
Sat 08:57:37 63.8570 2.7040 278° West 435 501 36,000  Level FlightAware ADS-B
Sat 08:58:12 63.8670 2.5470 278° West 435 501 36,000  Level FlightAware ADS-B
Sat 08:58:45 63.8750 2.4010 277° West 434 499 36,000  Level FlightAware ADS-B
Sat 08:59:30 63.8870 2.2030 278° West 432 497 36,000  Level FlightAware ADS-B
Sat 09:00:05 63.8970 2.0410 278° West 431 496 36,000  Level FlightAware ADS-B
Sat 09:00:49 63.9060 1.8710 277° West 431 496 36,000  Level FlightAware ADS-B
Sat 09:01:23 63.9160 1.6950 277° West 429 494 36,000  Level FlightAware ADS-B
Sat 09:01:57 63.9250 1.5400 278° West 428 493 36,000  Level FlightAware ADS-B
Sat 09:02:32 63.9330 1.3880 277° West 428 493 36,000  Level FlightAware ADS-B
Sat 09:03:10 63.9410 1.2330 277° West 428 493 36,000  Level FlightAware ADS-B
Sat 09:03:42 63.9490 1.0770 277° West 428 493 36,000  Level FlightAware ADS-B
Sat 09:04:14 63.9570 0.9300 277° West 429 494 36,000  Level FlightAware ADS-B
Sat 09:04:51 63.9630 0.7930 276° West 429 494 36,000  Level FlightAware ADS-B
Sat 09:05:27 63.9690 0.6550 276° West 429 494 36,000  Level FlightAware ADS-B
Sat 09:06:03 63.9760 0.5180 277° West 429 494 36,000  Level FlightAware ADS-B
Sat 09:06:39 63.9820 0.3800 276° West 429 494 36,000  Level FlightAware ADS-B
Sat 09:07:15 63.9930 0.1430 276° West 426 490 36,000  Level FlightAware ADS-B
Sat 09:07:51 63.9980 0.0060 275° West 426 490 36,000  Level FlightAware ADS-B
Sat 09:08:31 64.0080 -0.2170 276° West 430 495 36,000  Level FlightAware ADS-B
Sat 09:09:03 64.0120 -0.3630 274° West 430 495 36,000  Level FlightAware ADS-B
Sat 09:09:40 64.0170 -0.5230 274° West 431 496 36,000  Level FlightAware ADS-B
Sat 09:10:12 64.0220 -0.6700 275° West 432 497 36,000  Level FlightAware ADS-B
Sat 09:10:47 64.0270 -0.8330 274° West 431 496 36,000  Level FlightAware ADS-B
Sat 09:11:23 64.0310 -0.9960 273° West 431 496 36,000  Level FlightAware ADS-B
Sat 09:11:39 64.0330 -1.0610 274° West 431 496 36,000  Level FlightAware ADS-B
Sat 09:12:33 64.0390 -1.3110 273° West 431 496 36,000  Level FlightAware ADS-B
Sat 09:13:10 64.0440 -1.4780 274° West 429 494 36,000  Level FlightAware ADS-B
Sat 09:13:46 64.0470 -1.6410 272° West 427 491 36,000  Level FlightAware ADS-B
Sat 09:14:16 64.0500 -1.7740 273° West 426 490 36,000  Level FlightAware ADS-B
Sat 09:14:55 64.0540 -1.9490 273° West 425 489 36,000  Level FlightAware ADS-B
Sat 09:15:32 64.0580 -2.1170 273° West 425 489 36,000  Level FlightAware ADS-B
Sat 09:16:02 64.0600 -2.2510 272° West 425 489 36,000  Level FlightAware ADS-B
Sat 09:16:38 64.0630 -2.4090 273° West 424 488 36,000  Level FlightAware ADS-B
Sat 09:17:15 64.0660 -2.5690 273° West 424 488 36,000  Level FlightAware ADS-B
Sat 09:18:09 64.0700 -2.7980 272° West 424 488 36,000  Level FlightAware ADS-B
Sat 09:18:45 64.0720 -2.9350 272° West 424 488 36,000  Level FlightAware ADS-B
Sat 09:19:21 64.0740 -3.0720 272° West 424 488 36,000  Level FlightAware ADS-B
Sat 09:19:57 64.0760 -3.2100 272° West 424 488 36,000  Level FlightAware ADS-B
Sat 09:20:31 64.0780 -3.4450 271° West 421 484 36,000  Level FlightAware ADS-B
Sat 09:21:05 64.0800 -3.5960 272° West 421 484 36,000  Level FlightAware ADS-B
Sat 09:21:41 64.0810 -3.7560 271° West 422 486 36,000  Level FlightAware ADS-B
Sat 09:22:17 64.0820 -3.9100 271° West 422 486 36,000  Level FlightAware ADS-B
Sat 09:22:53 64.0830 -4.0770 271° West 423 487 36,000  Level FlightAware ADS-B
Sat 09:23:25 64.0840 -4.2140 271° West 423 487 36,000  Level FlightAware ADS-B
Sat 09:23:59 64.0850 -4.3690 271° West 423 487 36,000  Level FlightAware ADS-B
Sat 09:24:36 64.0850 -4.5370 270° West 424 488 36,000  Level FlightAware ADS-B
Sat 09:25:13 64.0860 -4.6870 271° West 424 488 36,000  Level FlightAware ADS-B
Sat 09:25:43 64.0860 -4.8360 270° West 424 488 36,000  Level FlightAware ADS-B
Sat 09:26:19 64.0860 -4.9950 270° West 424 488 36,000  Level FlightAware ADS-B
Sat 09:26:53 64.0860 -5.1450 270° West 423 487 36,000  Level FlightAware ADS-B
Sat 09:27:32 64.0860 -5.3220 270° West 422 486 36,000  Level FlightAware ADS-B
Sat 09:28:03 64.0860 -5.4580 270° West 421 484 36,000  Level FlightAware ADS-B
Sat 09:28:40 64.0850 -5.6160 269° West 421 484 36,000  Level FlightAware ADS-B
Sat 09:29:17 64.0840 -5.7810 269° West 421 484 36,000  Level FlightAware ADS-B
Sat 09:29:49 64.0830 -5.9260 269° West 422 486 36,000  Level FlightAware ADS-B
Sat 09:30:24 64.0820 -6.0810 269° West 422 486 36,000  Level FlightAware ADS-B
Sat 09:30:59 64.0810 -6.2360 269° West 423 487 36,000  Level FlightAware ADS-B
Sat 09:31:37 64.0790 -6.4090 269° West 424 488 36,000  Level FlightAware ADS-B
Sat 09:32:13 64.0780 -6.5690 269° West 423 487 36,000  Level FlightAware ADS-B
Sat 09:32:44 64.0760 -6.7030 268° West 423 487 36,000  Level FlightAware ADS-B
Sat 09:33:22 64.0740 -6.8760 269° West 423 487 36,000  Level FlightAware ADS-B
Sat 09:33:55 64.0720 -7.0220 268° West 423 487 36,000  Level FlightAware ADS-B
Sat 09:34:28 64.0700 -7.1630 268° West 424 488 36,000  Level FlightAware ADS-B
Sat 09:35:04 64.0680 -7.3290 268° West 424 488 36,000  Level FlightAware ADS-B
Sat 09:35:40 64.0650 -7.4870 268° West 425 489 36,000  Level FlightAware ADS-B
Sat 09:36:23 64.0610 -7.6650 267° West 426 490 36,000  Level FlightAware ADS-B
Sat 09:37:00 64.0580 -7.8070 267° West 426 490 36,000  Level FlightAware ADS-B
Sat 09:37:30 64.0560 -7.9800 269° West 426 490 36,000  Level FlightAware ADS-B
Sat 09:38:12 64.0520 -8.1390 267° West 426 490 36,000  Level FlightAware ADS-B
Sat 09:38:48 64.0490 -8.2760 267° West 426 490 36,000  Level FlightAware ADS-B
Sat 09:39:24 64.0460 -8.4140 267° West 426 490 36,000  Level FlightAware ADS-B
Sat 09:40:01 64.0420 -8.5550 266° West 426 490 36,000  Level FlightAware ADS-B
Sat 09:40:37 64.0390 -8.6930 267° West 426 490 36,000  Level FlightAware ADS-B
Sat 09:41:13 64.0360 -8.8300 267° West 426 490 36,000  Level FlightAware ADS-B
Sat 09:41:49 64.0330 -8.9680 267° West 426 490 36,000  Level FlightAware ADS-B
Sat 09:42:25 64.0300 -9.1060 267° West 426 490 36,000  Level FlightAware ADS-B
Sat 09:43:01 64.0270 -9.2430 267° West 426 490 36,000  Level FlightAware ADS-B
Sat 09:43:37 64.0230 -9.3810 266° West 426 490 36,000  Level FlightAware ADS-B
Sat 09:44:14 64.0200 -9.5220 267° West 426 490 36,000  Level FlightAware ADS-B
Sat 09:44:50 64.0170 -9.6590 267° West 426 490 36,000  Level FlightAware ADS-B
Sat 09:45:19 63.9950 -10.0830 263° West 426 490 36,000  Level FlightAware ADS-B
Sat 09:45:56 63.9850 -10.2450 262° West 426 490 36,000  Level FlightAware ADS-B
Sat 09:46:32 63.9740 -10.4030 261° West 425 489 36,000  Level FlightAware ADS-B
Sat 09:47:09 63.9640 -10.5690 262° West 424 488 36,000  Level FlightAware ADS-B
Sat 09:47:40 63.9550 -10.7010 261° West 424 488 36,000  Level FlightAware ADS-B
Sat 09:48:17 63.9450 -10.8490 261° West 424 488 36,000  Level FlightAware ADS-B
Sat 09:48:53 63.9320 -11.0250 261° West 424 488 36,000  Level FlightAware ADS-B
Sat 09:49:29 63.9210 -11.1810 261° West 423 487 36,000  Level FlightAware ADS-B
Sat 09:50:01 63.9110 -11.3220 261° West 422 486 36,000  Level FlightAware ADS-B
Sat 09:50:37 63.9000 -11.4780 261° West 421 484 36,000  Level FlightAware ADS-B
Sat 09:51:14 63.8880 -11.6370 260° West 421 484 36,000  Level FlightAware ADS-B
Sat 09:51:46 63.8780 -11.7760 261° West 422 486 36,000  Level FlightAware ADS-B
Sat 09:52:24 63.8650 -11.9430 260° West 422 486 36,000  Level FlightAware ADS-B
Sat 09:52:55 63.8550 -12.0800 261° West 422 486 36,000  Level FlightAware ADS-B
Sat 09:53:32 63.8420 -12.2370 259° West 421 484 36,000  Level FlightAware ADS-B
Sat 09:54:06 63.8310 -12.3860 261° West 420 483 36,000  Level FlightAware ADS-B
Sat 09:54:39 63.8190 -12.5290 259° West 419 482 36,000  Level FlightAware ADS-B
Sat 09:55:18 63.8060 -12.6880 260° West 418 481 36,000  Level FlightAware ADS-B
Sat 09:55:54 63.7930 -12.8490 260° West 418 481 36,000  Level FlightAware ADS-B
Sat 09:56:25 63.7810 -12.9840 259° West 417 480 36,000  Level FlightAware ADS-B
Sat 09:57:02 63.7680 -13.1410 259° West 417 480 36,000  Level FlightAware ADS-B
Sat 09:57:38 63.7560 -13.2950 260° West 419 482 36,000  Level FlightAware ADS-B
Sat 09:58:10 63.7540 -13.4320 268° West 420 483 36,000  Level FlightAware ADS-B
Sat 09:58:46 63.7460 -13.5860 263° West 420 483 36,000  Level FlightAware ADS-B
Sat 09:59:22 63.7320 -13.7440 259° West 419 482 36,000  Level FlightAware ADS-B
Sat 09:59:57 63.7180 -13.8950 258° West 418 481 36,000  Level FlightAware ADS-B
Sat 10:00:34 63.7040 -14.0500 259° West 416 479 36,000  Level FlightAware ADS-B
Sat 10:01:06 63.6920 -14.1840 259° West 416 479 36,000  Level FlightAware ADS-B
Sat 10:01:42 63.6780 -14.3330 258° West 416 479 36,000  Level FlightAware ADS-B
Sat 10:02:18 63.6630 -14.4930 258° West 415 478 36,000  Level FlightAware ADS-B
Sat 10:02:55 63.6480 -14.6470 258° West 415 478 36,000  Level FlightAware ADS-B
Sat 10:03:27 63.6350 -14.7820 258° West 414 476 36,000  Level FlightAware ADS-B
Sat 10:04:03 63.6200 -14.9330 257° West 414 476 36,000  Level FlightAware ADS-B
Sat 10:04:40 63.6050 -15.0860 258° West 416 479 36,000  Level FlightAware ADS-B
Sat 10:05:08 63.5930 -15.2050 257° West 417 480 36,000  Level FlightAware ADS-B
Sat 10:05:47 63.5760 -15.3660 257° West 418 481 36,000  Level FlightAware ADS-B
Sat 10:06:22 63.5610 -15.5150 257° West 418 481 36,000  Level FlightAware ADS-B
Sat 10:06:58 63.5450 -15.6660 257° West 419 482 36,000  Level FlightAware ADS-B
Sat 10:07:34 63.5290 -15.8200 257° West 419 482 36,000  Level FlightAware ADS-B
Sat 10:08:06 63.5150 -15.9490 256° West 419 482 36,000  Level FlightAware ADS-B
Sat 10:08:42 63.4990 -16.1060 257° West 418 481 36,000  Level FlightAware ADS-B
Sat 10:09:18 63.4820 -16.2560 256° West 418 481 36,000  Level FlightAware ADS-B
Sat 10:09:54 63.4660 -16.4060 257° West 418 481 36,000  Level FlightAware ADS-B
Sat 10:10:27 63.4500 -16.5460 256° West 419 482 36,000  Level FlightAware ADS-B
Sat 10:11:05 63.4320 -16.7060 256° West 419 482 36,000  Level FlightAware ADS-B
Sat 10:11:36 63.4180 -16.8340 256° West 420 483 36,000  Level FlightAware ADS-B
Sat 10:12:14 63.4000 -16.9870 255° West 419 482 36,000  Level FlightAware ADS-B
Sat 10:12:48 63.3850 -17.1250 256° West 419 482 36,000  Level FlightAware ADS-B
Sat 10:13:23 63.3670 -17.2790 255° West 419 482 36,000  Level FlightAware ADS-B
Sat 10:13:59 63.3490 -17.4280 255° West 421 484 36,000  Level FlightAware ADS-B
Sat 10:14:32 63.3330 -17.5650 255° West 423 487 36,000  Level FlightAware ADS-B
Sat 10:15:07 63.3150 -17.7150 255° West 424 488 36,000  Level FlightAware ADS-B
Sat 10:15:41 63.2980 -17.8510 255° West 425 489 36,000  Level FlightAware ADS-B
Sat 10:16:18 63.2790 -18.0110 255° West 427 491 36,000  Level FlightAware ADS-B
Sat 10:16:55 63.2590 -18.1710 255° West 425 489 36,000  Level FlightAware ADS-B
Sat 10:17:29 63.2410 -18.3120 254° West 425 489 36,000  Level FlightAware ADS-B
Sat 10:18:04 63.2230 -18.4550 254° West 424 488 36,000  Level FlightAware ADS-B
Sat 10:18:38 63.2050 -18.5950 254° West 425 489 36,000  Level FlightAware ADS-B
Sat 10:19:12 63.1870 -18.7400 255° West 424 488 36,000  Level FlightAware ADS-B
Sat 10:19:50 63.1670 -18.8930 254° West 424 488 36,000  Level FlightAware ADS-B
Sat 10:20:22 63.1490 -19.0270 253° West 425 489 36,000  Level FlightAware ADS-B
Sat 10:21:00 63.1280 -19.1870 254° West 422 486 36,000  Level FlightAware ADS-B
Sat 10:21:32 63.1100 -19.3200 253° West 420 483 36,000  Level FlightAware ADS-B
Sat 10:22:09 63.0900 -19.4730 254° West 419 482 36,000  Level FlightAware ADS-B
Sat 10:22:39 63.0740 -19.5910 253° West 420 483 36,000  Level FlightAware ADS-B
Sat 10:23:16 63.0530 -19.7440 253° West 422 486 36,000  Level FlightAware ADS-B
Sat 10:23:53 63.0330 -19.8910 253° West 423 487 36,000  Level FlightAware ADS-B
Sat 10:24:29 63.0150 -20.0410 255° West 423 487 36,000  Level FlightAware ADS-B
Sat 10:25:04 63.0050 -20.1890 262° West 425 489 36,000  Level FlightAware ADS-B
Sat 10:25:40 62.9950 -20.3550 263° West 427 491 36,000  Level FlightAware ADS-B
Sat 10:26:12 62.9860 -20.4930 262° West 426 490 36,000  Level FlightAware ADS-B
Sat 10:26:46 62.9760 -20.6380 261° West 426 490 36,000  Level FlightAware ADS-B
Sat 10:27:24 62.9650 -20.8020 262° West 425 489 36,000  Level FlightAware ADS-B
Sat 10:28:00 62.9550 -20.9540 262° West 425 489 36,000  Level FlightAware ADS-B
Sat 10:28:33 62.9450 -21.0920 261° West 425 489 36,000  Level FlightAware ADS-B
Sat 10:29:08 62.9350 -21.2400 262° West 427 491 36,000  Level FlightAware ADS-B
Sat 10:29:44 62.9240 -21.3960 261° West 427 491 36,000  Level FlightAware ADS-B
Sat 10:30:21 62.9120 -21.5490 260° West 427 491 36,000  Level FlightAware ADS-B
Sat 10:30:51 62.9030 -21.6790 261° West 425 489 36,000  Level FlightAware ADS-B
Sat 10:31:28 62.8910 -21.8390 261° West 422 486 36,000  Level FlightAware ADS-B
Sat 10:32:06 62.8790 -21.9970 261° West 420 483 36,000  Level FlightAware ADS-B
Sat 10:32:39 62.8680 -22.1340 260° West 420 483 36,000  Level FlightAware ADS-B
Sat 10:33:12 62.8580 -22.2670 261° West 420 483 36,000  Level FlightAware ADS-B
Sat 10:33:48 62.8460 -22.4240 261° West 419 482 36,000  Level FlightAware ADS-B
Sat 10:34:24 62.8340 -22.5730 260° West 419 482 36,000  Level FlightAware ADS-B
Sat 10:35:00 62.8210 -22.7230 259° West 421 484 36,000  Level FlightAware ADS-B
Sat 10:35:32 62.8100 -22.8570 260° West 421 484 36,000  Level FlightAware ADS-B
Sat 10:36:10 62.7970 -23.0140 260° West 420 483 36,000  Level FlightAware ADS-B
Sat 10:36:44 62.7850 -23.1570 260° West 421 484 36,000  Level FlightAware ADS-B
Sat 10:37:18 62.7730 -23.3000 260° West 423 487 36,000  Level FlightAware ADS-B
Sat 10:37:54 62.7600 -23.4490 259° West 423 487 36,000  Level FlightAware ADS-B
Sat 10:38:30 62.7470 -23.5980 259° West 422 486 36,000  Level FlightAware ADS-B
Sat 10:39:06 62.7330 -23.7490 259° West 420 483 36,000  Level FlightAware ADS-B
Sat 10:39:38 62.7210 -23.8830 259° West 418 481 36,000  Level FlightAware ADS-B
Sat 10:40:14 62.7080 -24.0300 259° West 417 480 36,000  Level FlightAware ADS-B
Sat 10:40:49 62.6950 -24.1720 259° West 416 479 36,000  Level FlightAware ADS-B
Sat 10:41:20 62.6830 -24.2990 258° West 415 478 36,000  Level FlightAware ADS-B
Sat 10:41:58 62.6680 -24.4550 258° West 414 476 36,000  Level FlightAware ADS-B
Sat 10:42:34 62.6540 -24.6010 258° West 414 476 36,000  Level FlightAware ADS-B
Sat 10:43:11 62.6400 -24.7440 258° West 415 478 36,000  Level FlightAware ADS-B
Sat 10:43:42 62.6270 -24.8750 258° West 415 478 36,000  Level FlightAware ADS-B
Sat 10:44:18 62.6130 -25.0240 259° West 416 479 36,000  Level FlightAware ADS-B
Sat 10:44:55 62.5980 -25.1710 258° West 417 480 36,000  Level FlightAware ADS-B
Sat 10:45:28 62.5840 -25.3100 258° West 417 480 36,000  Level FlightAware ADS-B
Sat 10:46:05 62.5690 -25.4580 258° West 417 480 36,000  Level FlightAware ADS-B
Sat 10:46:32 62.5580 -25.5630 257° West 416 479 36,000  Level FlightAware ADS-B
Sat 10:47:15 62.5390 -25.7450 257° West 416 479 36,000  Level FlightAware ADS-B
Sat 10:47:47 62.5250 -25.8730 257° West 417 480 36,000  Level FlightAware ADS-B
Sat 10:48:32 62.5060 -26.0540 257° West 417 480 36,000  Level FlightAware ADS-B
Sat 10:49:03 62.4920 -26.1790 256° West 418 481 36,000  Level FlightAware ADS-B
Sat 10:49:40 62.4760 -26.3310 257° West 419 482 36,000  Level FlightAware ADS-B
Sat 10:50:16 62.4600 -26.4770 257° West 418 481 36,000  Level FlightAware ADS-B
Sat 10:50:50 62.4440 -26.6140 256° West 417 480 36,000  Level FlightAware ADS-B
Sat 10:51:28 62.4270 -26.7680 257° West 416 479 36,000  Level FlightAware ADS-B
Sat 10:52:00 62.4130 -26.8940 257° West 416 479 36,000  Level FlightAware ADS-B
Sat 10:52:35 62.3960 -27.0370 256° West 415 478 36,000  Level FlightAware ADS-B
Sat 10:53:13 62.3780 -27.1890 256° West 416 479 36,000  Level FlightAware ADS-B
Sat 10:53:45 62.3630 -27.3160 256° West 417 480 36,000  Level FlightAware ADS-B
Sat 10:54:21 62.3470 -27.4580 256° West 417 480 36,000  Level FlightAware ADS-B
Sat 10:54:57 62.3290 -27.6070 255° West 418 481 36,000  Level FlightAware ADS-B
Sat 10:55:32 62.3120 -27.7470 255° West 419 482 36,000  Level FlightAware ADS-B
Sat 10:56:05 62.2970 -27.8740 256° West 418 481 36,000  Level FlightAware ADS-B
Sat 10:56:41 62.2790 -28.0180 255° West 416 479 36,000  Level FlightAware ADS-B
Sat 10:57:17 62.2610 -28.1600 255° West 416 479 36,000  Level FlightAware ADS-B
Sat 10:57:49 62.2460 -28.2830 255° West 416 479 36,000  Level FlightAware ADS-B
Sat 10:58:28 62.2260 -28.4420 255° West 415 478 36,000  Level FlightAware ADS-B
Sat 10:58:55 62.2120 -28.5520 255° West 415 478 36,000  Level FlightAware ADS-B
Sat 10:59:37 62.1900 -28.7220 255° West 416 479 36,000  Level FlightAware ADS-B
Sat 11:00:09 62.1740 -28.8460 255° West 416 479 36,000  Level FlightAware ADS-B
Sat 11:00:46 62.1540 -28.9950 254° West 417 480 36,000  Level FlightAware ADS-B
Sat 11:01:21 62.1370 -29.1260 255° West 416 479 36,000  Level FlightAware ADS-B
Sat 11:01:53 62.1200 -29.2530 254° West 416 479 36,000  Level FlightAware ADS-B
Sat 11:02:30 62.1000 -29.4030 254° West 417 480 36,000  Level FlightAware ADS-B
Sat 11:03:08 62.0820 -29.5290 253° West 417 480 36,000  Level FlightAware ADS-B
Sat 11:03:42 62.0660 -29.6430 253° West 417 480 36,000  Level FlightAware ADS-B
Sat 11:04:09 62.0470 -29.7890 255° West 419 482 36,000  Level FlightAware ADS-B
Sat 11:04:47 62.0260 -29.9420 254° West 420 483 36,000  Level FlightAware ADS-B
Sat 11:05:26 62.0050 -30.0700 251° West 419 482 36,000  Level FlightAware ADS-B
Sat 11:06:03 61.9850 -30.1920 251° West 419 482 36,000  Level FlightAware ADS-B
Sat 11:06:40 61.9650 -30.3150 251° West 419 482 36,000  Level FlightAware ADS-B
Sat 11:07:16 61.9460 -30.4340 251° West 419 482 36,000  Level FlightAware ADS-B
Sat 11:07:54 61.9260 -30.5600 251° West 419 482 36,000  Level FlightAware ADS-B
Sat 11:08:29 61.9070 -30.6760 251° West 419 482 36,000  Level FlightAware ADS-B
Sat 11:09:06 61.8870 -30.7980 251° West 419 482 36,000  Level FlightAware ADS-B
Sat 11:09:40 61.8690 -30.9110 251° West 419 482 36,000  Level FlightAware ADS-B
Sat 11:10:16 61.8490 -31.0300 250° West 419 482 36,000  Level FlightAware ADS-B
Sat 11:10:54 61.8290 -31.1550 251° West 419 482 36,000  Level FlightAware ADS-B
Sat 11:11:29 61.8100 -31.2710 251° West 419 482 36,000  Level FlightAware ADS-B
Sat 11:12:07 61.7900 -31.3960 251° West 419 482 36,000  Level FlightAware ADS-B
Sat 11:12:43 61.7700 -31.5140 250° West 419 482 36,000  Level FlightAware ADS-B
Sat 11:13:19 61.7510 -31.6330 251° West 419 482 36,000  Level FlightAware ADS-B
Sat 11:13:55 61.7320 -31.7510 251° West 419 482 36,000  Level FlightAware ADS-B
Sat 11:14:31 61.7130 -31.8700 251° West 419 482 36,000  Level FlightAware ADS-B
Sat 11:17:00 61.5817 -32.4583 245° Southwest  Level Estimated
Sat 11:18:00 61.5281 -32.6938 245° Southwest  Level Estimated
Sat 11:19:00 61.4741 -32.9285 244° Southwest  Level Estimated
Sat 11:20:00 61.4197 -33.1623 244° Southwest  Level Estimated
Sat 11:21:00 61.3649 -33.3954 244° Southwest  Level Estimated
Sat 11:22:00 61.3097 -33.6276 244° Southwest  Level Estimated
Sat 11:23:00 61.2542 -33.8590 244° Southwest  Level Estimated
Sat 11:24:00 61.1982 -34.0896 243° Southwest  Level Estimated
Sat 11:25:00 61.1418 -34.3193 243° Southwest  Level Estimated
Sat 11:26:00 61.0851 -34.5482 243° Southwest  Level Estimated
Sat 11:27:00 61.0279 -34.7764 243° Southwest  Level Estimated
Sat 11:28:00 60.9704 -35.0037 243° Southwest  Level Estimated
Sat 11:29:00 60.9125 -35.2301 242° Southwest  Level Estimated
Sat 11:30:00 60.8542 -35.4558 242° Southwest  Level Estimated
Sat 11:31:00 60.7956 -35.6806 242° Southwest  Level Estimated
Sat 11:32:00 60.7365 -35.9046 242° Southwest  Level Estimated
Sat 11:33:00 60.6771 -36.1278 242° Southwest  Level Estimated
Sat 11:34:00 60.6173 -36.3501 241° Southwest  Level Estimated
Sat 11:35:00 60.5572 -36.5716 241° Southwest  Level Estimated
Sat 11:36:00 60.4967 -36.7923 241° Southwest  Level Estimated
Sat 11:37:00 60.4358 -37.0122 241° Southwest  Level Estimated
Sat 11:38:00 60.3746 -37.2313 241° Southwest  Level Estimated
Sat 11:39:00 60.3130 -37.4495 240° Southwest  Level Estimated
Sat 11:40:00 60.2510 -37.6669 240° Southwest  Level Estimated
Sat 11:41:00 60.1888 -37.8835 240° Southwest  Level Estimated
Sat 11:42:00 60.1261 -38.0992 240° Southwest  Level Estimated
Sat 11:43:00 60.0631 -38.3141 240° Southwest  Level Estimated
Sat 11:44:00 59.9997 -38.5283 239° Southwest  Level Estimated
Sat 11:45:00 59.9361 -38.7415 239° Southwest  Level Estimated
Sat 11:46:00 59.8720 -38.9540 239° Southwest  Level Estimated
Sat 11:47:00 59.8076 -39.1657 239° Southwest  Level Estimated
Sat 11:48:00 59.7429 -39.3765 239° Southwest  Level Estimated
Sat 11:49:00 59.6779 -39.5865 239° Southwest  Level Estimated
Sat 11:50:00 59.6125 -39.7957 238° Southwest  Level Estimated
Sat 11:51:00 59.5467 -40.0041 238° Southwest  Level Estimated
Sat 11:52:00 59.4807 -40.2117 238° Southwest  Level Estimated
Sat 11:53:00 59.4143 -40.4184 238° Southwest  Level Estimated
Sat 11:54:00 59.3476 -40.6244 238° Southwest  Level Estimated
Sat 11:55:00 59.2806 -40.8295 237° Southwest  Level Estimated
Sat 11:56:00 59.2132 -41.0339 237° Southwest  Level Estimated
Sat 11:57:00 59.1456 -41.2374 237° Southwest  Level Estimated
Sat 11:58:00 59.0776 -41.4401 237° Southwest  Level Estimated
Sat 11:59:00 59.0093 -41.6420 237° Southwest  Level Estimated
Sat 12:00:00 58.9407 -41.8431 237° Southwest  Level Estimated
Sat 12:01:00 58.8718 -42.0434 236° Southwest  Level Estimated
Sat 12:02:00 58.8025 -42.2430 236° Southwest  Level Estimated
Sat 12:03:00 58.7330 -42.4417 236° Southwest  Level Estimated
Sat 12:04:00 58.6632 -42.6396 236° Southwest  Level Estimated
Sat 12:05:00 58.5930 -42.8367 236° Southwest  Level Estimated
Sat 12:06:00 58.5225 -43.0331 236° Southwest  Level Estimated
Sat 12:07:00 58.4518 -43.2286 235° Southwest  Level Estimated
Sat 12:08:00 58.3808 -43.4234 235° Southwest  Level Estimated
Sat 12:09:00 58.3094 -43.6174 235° Southwest  Level Estimated
Sat 12:10:00 58.2378 -43.8106 235° Southwest  Level Estimated
Sat 12:11:00 58.1659 -44.0030 235° Southwest  Level Estimated
Sat 12:12:00 58.0937 -44.1946 235° Southwest  Level Estimated
Sat 12:13:00 58.0212 -44.3855 234° Southwest  Level Estimated
Sat 12:14:00 57.9484 -44.5756 234° Southwest  Level Estimated
Sat 12:15:00 57.8754 -44.7649 234° Southwest  Level Estimated
Sat 12:16:00 57.8020 -44.9535 234° Southwest  Level Estimated
Sat 12:17:00 57.7284 -45.1413 234° Southwest  Level Estimated
Sat 12:18:00 57.6545 -45.3283 234° Southwest  Level Estimated
Sat 12:19:00 57.5803 -45.5145 233° Southwest  Level Estimated
Sat 12:20:00 57.5059 -45.7000 233° Southwest  Level Estimated
Sat 12:21:00 57.4312 -45.8848 233° Southwest  Level Estimated
Sat 12:22:00 57.3562 -46.0688 233° Southwest  Level Estimated
Sat 12:23:00 57.2809 -46.2520 233° Southwest  Level Estimated
Sat 12:24:00 57.2054 -46.4345 233° Southwest  Level Estimated
Sat 12:25:00 57.1296 -46.6162 233° Southwest  Level Estimated
Sat 12:26:00 57.0536 -46.7972 232° Southwest  Level Estimated
Sat 12:27:00 56.9773 -46.9775 232° Southwest  Level Estimated
Sat 12:28:00 56.9007 -47.1570 232° Southwest  Level Estimated
Sat 12:29:00 56.8239 -47.3358 232° Southwest  Level Estimated
Sat 12:30:00 56.7468 -47.5138 232° Southwest  Level Estimated
Sat 12:31:00 56.6695 -47.6912 232° Southwest  Level Estimated
Sat 12:32:00 56.5920 -47.8677 231° Southwest  Level Estimated
Sat 12:33:00 56.5141 -48.0436 231° Southwest  Level Estimated
Sat 12:34:00 56.4361 -48.2188 231° Southwest  Level Estimated
Sat 12:35:00 56.3577 -48.3932 231° Southwest  Level Estimated
Sat 12:36:00 56.2792 -48.5669 231° Southwest  Level Estimated
Sat 12:37:00 56.2004 -48.7399 231° Southwest  Level Estimated
Sat 12:38:00 56.1213 -48.9122 231° Southwest  Level Estimated
Sat 12:39:00 56.0421 -49.0838 230° Southwest  Level Estimated
Sat 12:40:00 55.9626 -49.2547 230° Southwest  Level Estimated
Sat 12:41:00 55.8828 -49.4248 230° Southwest  Level Estimated
Sat 12:42:00 55.8028 -49.5943 230° Southwest  Level Estimated
Sat 12:43:00 55.7226 -49.7631 230° Southwest  Level Estimated
Sat 12:44:00 55.6421 -49.9312 230° Southwest  Level Estimated
Sat 12:45:00 55.5615 -50.0986 230° Southwest  Level Estimated
Sat 12:46:00 55.4805 -50.2653 229° Southwest  Level Estimated
Sat 12:47:00 55.3994 -50.4313 229° Southwest  Level Estimated
Sat 12:48:00 55.3181 -50.5967 229° Southwest  Level Estimated
Sat 12:49:00 55.2365 -50.7613 229° Southwest  Level Estimated
Sat 12:50:00 55.1547 -50.9253 229° Southwest  Level Estimated
Sat 12:51:00 55.0727 -51.0886 229° Southwest  Level Estimated
Sat 12:52:00 54.9904 -51.2513 229° Southwest  Level Estimated
Sat 12:53:00 54.9080 -51.4133 229° Southwest  Level Estimated
Sat 12:54:00 54.8253 -51.5746 228° Southwest  Level Estimated
Sat 12:55:00 54.7424 -51.7352 228° Southwest  Level Estimated
Sat 12:56:00 54.6593 -51.8952 228° Southwest  Level Estimated
Sat 12:57:00 54.5760 -52.0546 228° Southwest  Level Estimated
Sat 12:58:00 54.4925 -52.2133 228° Southwest  Level Estimated
Sat 12:59:00 54.4088 -52.3713 228° Southwest  Level Estimated
Sat 13:00:00 54.3249 -52.5288 228° Southwest  Level Estimated
Sat 13:01:00 54.2407 -52.6855 227° Southwest  Level Estimated
Sat 13:02:00 54.1564 -52.8416 227° Southwest  Level Estimated
Sat 13:03:00 54.0719 -52.9971 227° Southwest  Level Estimated
Sat 13:04:00 53.9872 -53.1520 227° Southwest  Level Estimated
Sat 13:05:00 53.9022 -53.3062 227° Southwest  Level Estimated
Sat 13:06:00 53.8171 -53.4598 227° Southwest  Level Estimated
Sat 13:07:00 53.7318 -53.6128 227° Southwest  Level Estimated
Sat 13:08:00 53.6463 -53.7652 227° Southwest  Level Estimated
Sat 13:09:00 53.5606 -53.9169 226° Southwest  Level Estimated
Sat 13:10:00 53.4747 -54.0680 226° Southwest  Level Estimated
Sat 13:11:00 53.3886 -54.2186 226° Southwest  Level Estimated
Sat 13:12:00 53.3023 -54.3685 226° Southwest  Level Estimated
Sat 13:12:26 52.9833 -54.3667 226° Southwest 490 564 36,000  Level Gander Center
Sat 13:13:00 53.2158 -54.5178 226° Southwest  Level Estimated
Sat 13:13:26 52.9000 -54.5333 230° Southwest 480 552 36,000  Level Gander Center
Sat 13:14:00 53.1292 -54.6665 226° Southwest  Level Estimated
Sat 13:14:26 52.8333 -54.7167 239° Southwest 480 552 36,000  Level Gander Center
Sat 13:15:00 53.0424 -54.8146 226° Southwest  Level Estimated
Sat 13:15:26 52.7333 -54.9000 228° Southwest 490 564 36,000  Level Gander Center
Sat 13:16:00 52.9545 -54.9636 226° Southwest  Level Estimated
Sat 13:16:13 52.6833 -55.0333 238° Southwest 500 575 36,000  Level Moncton Center
Sat 13:17:00 52.8663 -55.1121 226° Southwest  Level Estimated
Sat 13:17:13 52.5833 -55.2167 228° Southwest 500 575 36,000  Level Moncton Center
Sat 13:18:13 52.4833 -55.3667 222° Southwest 500 575 36,000  Level Moncton Center
Sat 13:19:13 52.3833 -55.5667 231° Southwest 500 575 36,000  Level Moncton Center
Sat 13:20:13 52.3000 -55.7167 228° Southwest 500 575 36,000  Level Moncton Center
Sat 13:21:13 52.2000 -55.8667 223° Southwest 500 575 36,000  Level Moncton Center
Sat 13:22:13 52.1167 -56.0500 234° Southwest 500 575 36,000  Level Moncton Center
Sat 13:23:13 52.0167 -56.2000 223° Southwest 490 564 36,000  Level Moncton Center
Sat 13:24:13 51.9167 -56.3833 229° Southwest 500 575 36,000  Level Moncton Center
Sat 13:25:13 51.8333 -56.5333 228° Southwest 500 575 36,000  Level Moncton Center
Sat 13:26:13 51.7333 -56.7167 229° Southwest 500 575 36,000  Level Moncton Center
Sat 13:27:13 51.6500 -56.8667 228° Southwest 500 575 36,000  Level Moncton Center
Sat 13:28:13 51.5500 -57.0500 229° Southwest 500 575 36,000  Level Moncton Center
Sat 13:29:13 51.4500 -57.2000 223° Southwest 500 575 36,000  Level Moncton Center
Sat 13:30:13 51.3500 -57.3500 223° Southwest 500 575 36,000  Level Moncton Center
Sat 13:31:13 51.2667 -57.5167 231° Southwest 490 564 36,000  Level Moncton Center
Sat 13:32:13 51.1833 -57.6667 228° Southwest 490 564 36,000  Level Moncton Center
Sat 13:33:25 51.0500 -57.8833 226° Southwest 490 564 36,000  Level Gander Center
Sat 13:34:25 50.9667 -58.0167 225° Southwest 490 564 36,000  Level Gander Center
Sat 13:35:13 50.8833 -58.1333 221° Southwest 500 575 36,000  Level Moncton Center
Sat 13:40:34 50.3850 -58.9970 221° Southwest 490 564 36,000  Level FlightAware ADS-B
Sat 13:41:13 50.3200 -59.1010 226° Southwest 491 565 36,000  Level FlightAware ADS-B
Sat 13:41:56 50.2610 -59.1930 225° Southwest 491 565 36,000  Level FlightAware ADS-B
Sat 13:42:37 50.1940 -59.2970 225° Southwest 491 565 36,000  Level FlightAware ADS-B
Sat 13:43:13 50.1450 -59.3740 225° Southwest 491 565 36,000  Level FlightAware ADS-B
Sat 13:43:49 50.0960 -59.4510 225° Southwest 491 565 36,000  Level FlightAware ADS-B
Sat 13:44:26 50.0450 -59.5290 224° Southwest 491 565 36,000  Level FlightAware ADS-B
Sat 13:45:04 49.9940 -59.6100 226° Southwest 491 565 36,000  Level FlightAware ADS-B
Sat 13:45:41 49.9430 -59.6890 225° Southwest 491 565 36,000  Level FlightAware ADS-B
Sat 13:46:15 49.8970 -59.7610 225° Southwest 491 565 36,000  Level FlightAware ADS-B
Sat 13:46:51 49.8470 -59.8370 224° Southwest 491 565 36,000  Level FlightAware ADS-B
Sat 13:47:28 49.7970 -59.9150 225° Southwest 491 565 36,000  Level FlightAware ADS-B
Sat 13:48:04 49.7480 -59.9910 225° Southwest 491 565 36,000  Level FlightAware ADS-B
Sat 13:48:38 49.7010 -60.0630 225° Southwest 491 565 36,000  Level FlightAware ADS-B
Sat 13:49:16 49.6490 -60.1430 225° Southwest 491 565 36,000  Level FlightAware ADS-B
Sat 13:49:50 49.6030 -60.2150 225° Southwest 491 565 36,000  Level FlightAware ADS-B
Sat 13:50:27 49.5520 -60.2930 225° Southwest 491 565 36,000  Level FlightAware ADS-B
Sat 13:51:05 49.5010 -60.3730 226° Southwest 491 565 36,000  Level FlightAware ADS-B
Sat 13:51:41 49.4510 -60.4480 224° Southwest 491 565 36,000  Level FlightAware ADS-B
Sat 13:52:26 49.2333 -60.7167 224° Southwest 480 552 36,000  Level Gander Center
Sat 13:53:13 49.1500 -60.8333 223° Southwest 480 552 36,000  Level Moncton Center
Sat 13:54:13 49.0500 -60.9667 221° Southwest 480 552 36,000  Level Moncton Center
Sat 13:55:13 48.9667 -61.1000 226° Southwest 480 552 36,000  Level Moncton Center
Sat 13:56:13 48.8833 -61.2333 226° Southwest 470 541 36,000  Level Moncton Center
Sat 13:57:26 48.7500 -61.4333 225° Southwest 480 552 36,000  Level Gander Center
Sat 13:58:13 48.6833 -61.5333 225° Southwest 470 541 36,000  Level Moncton Center
Sat 13:59:25 48.5500 -61.6833 217° Southwest 480 552 36,000  Level Gander Center
Sat 14:00:25 48.4667 -61.8333 230° Southwest 470 541 36,000  Level Gander Center
Sat 14:01:13 48.4000 -61.9333 225° Southwest 480 552 36,000  Level Moncton Center
Sat 14:02:13 48.3000 -62.0500 218° Southwest 470 541 36,000  Level Moncton Center
Sat 14:03:13 48.2000 -62.2167 228° Southwest 480 552 36,000  Level Moncton Center
Sat 14:04:13 48.1000 -62.3333 218° Southwest 480 552 36,000  Level Moncton Center
Sat 14:05:13 48.0000 -62.4667 222° Southwest 470 541 36,000  Level Moncton Center
Sat 14:06:13 47.9000 -62.6167 225° Southwest 480 552 36,000  Level Moncton Center
Sat 14:07:13 47.8000 -62.7500 222° Southwest 470 541 36,000  Level Moncton Center
Sat 14:08:13 47.7000 -62.8833 222° Southwest 480 552 36,000  Level Moncton Center
Sat 14:09:13 47.6000 -63.0000 218° Southwest 480 552 36,000  Level Moncton Center
Sat 14:10:13 47.5167 -63.1333 227° Southwest 480 552 36,000  Level Moncton Center
Sat 14:11:13 47.4167 -63.2833 225° Southwest 480 552 36,000  Level Moncton Center
Sat 14:12:13 47.3167 -63.4167 222° Southwest 480 552 36,000  Level Moncton Center
Sat 14:13:13 47.2167 -63.5333 218° Southwest 480 552 36,000  Level Moncton Center
Sat 14:14:13 47.1167 -63.6833 226° Southwest 490 564 36,000  Level Moncton Center
Sat 14:15:13 47.0000 -63.8000 214° Southwest 490 564 36,000  Level Moncton Center
Sat 14:16:13 46.9167 -63.9333 228° Southwest 490 564 36,000  Level Moncton Center
Sat 14:17:13 46.8167 -64.0833 226° Southwest 490 564 36,000  Level Moncton Center
Sat 14:18:13 46.7000 -64.2000 214° Southwest 490 564 36,000  Level Moncton Center
Sat 14:19:13 46.6000 -64.3167 219° Southwest 490 564 36,000  Level Moncton Center
Sat 14:20:13 46.5000 -64.4667 226° Southwest 490 564 36,000  Level Moncton Center
Sat 14:21:13 46.4000 -64.5833 219° Southwest 490 564 36,000  Level Moncton Center
Sat 14:22:13 46.3000 -64.7333 226° Southwest 490 564 36,000  Level Moncton Center
Sat 14:28:10 45.6870 -65.4990 226° Southwest 486 559 36,000  Level FlightAware ADS-B
Sat 14:28:50 45.6180 -65.5830 220° Southwest 487 560 36,000  Level FlightAware ADS-B
Sat 14:29:20 45.5650 -65.6470 220° Southwest 486 559 36,000  Level FlightAware ADS-B
Sat 14:29:59 45.4960 -65.7300 220° Southwest 486 559 36,000  Level FlightAware ADS-B
Sat 14:30:30 45.4440 -65.7930 220° Southwest 487 560 36,000  Level FlightAware ADS-B
Sat 14:31:09 45.3750 -65.8760 220° Southwest 487 560 36,000  Level FlightAware ADS-B
Sat 14:31:40 45.3220 -65.9400 220° Southwest 487 560 36,000  Level FlightAware ADS-B
Sat 14:32:15 45.2610 -66.0120 220° Southwest 487 560 36,000  Level FlightAware ADS-B
Sat 14:32:50 45.1990 -66.0860 220° Southwest 486 559 36,000  Level FlightAware ADS-B
Sat 14:33:29 45.1320 -66.1650 220° Southwest 487 560 36,000  Level FlightAware ADS-B
Sat 14:34:00 45.0780 -66.2290 220° Southwest 488 562 36,000  Level FlightAware ADS-B
Sat 14:34:34 45.0180 -66.3010 220° Southwest 489 563 36,000  Level FlightAware ADS-B
Sat 14:35:10 44.9550 -66.3740 219° Southwest 490 564 36,000  Level FlightAware ADS-B
Sat 14:35:49 44.8850 -66.4560 220° Southwest 488 562 36,000  Level FlightAware ADS-B
Sat 14:36:20 44.8330 -66.5170 220° Southwest 488 562 36,000  Level FlightAware ADS-B
Sat 14:36:59 44.7630 -66.6000 220° Southwest 488 562 36,000  Level FlightAware ADS-B
Sat 14:37:30 44.7090 -66.6620 219° Southwest 489 563 36,000  Level FlightAware ADS-B
Sat 14:38:05 44.6460 -66.7360 220° Southwest 496 571 36,000  Level FlightAware ADS-B
Sat 14:38:41 44.5830 -66.8080 219° Southwest 497 572 36,000  Level FlightAware ADS-B
Sat 14:39:16 44.5220 -66.8790 220° Southwest 497 572 36,000  Level FlightAware ADS-B
Sat 14:39:51 44.4590 -66.9510 219° Southwest 497 572 36,000  Level FlightAware ADS-B
Sat 14:40:25 44.3990 -67.0220 220° Southwest 497 572 36,000  Level FlightAware ADS-B
Sat 14:41:01 44.3410 -67.1020 225° Southwest 492 566 36,000  Level FlightAware ADS-B
Sat 14:41:36 44.2830 -67.1830 225° Southwest 499 574 36,000  Level FlightAware ADS-B
Sat 14:42:10 44.2260 -67.2610 224° Southwest 502 578 36,000  Level FlightAware ADS-B
Sat 14:42:46 44.1680 -67.3410 225° Southwest 498 573 36,000  Level FlightAware ADS-B
Sat 14:43:21 44.1100 -67.4200 224° Southwest 499 574 36,000  Level FlightAware ADS-B
Sat 14:43:56 44.0500 -67.5010 224° Southwest 502 578 36,000  Level FlightAware ADS-B
Sat 14:44:35 43.9840 -67.5910 224° Southwest 498 573 36,000  Level FlightAware ADS-B
Sat 14:45:06 43.9340 -67.6590 224° Southwest 497 572 36,000  Level FlightAware ADS-B
Sat 14:45:40 43.8770 -67.7350 224° Southwest 495 570 36,000  Level FlightAware ADS-B
Sat 14:46:16 43.8180 -67.8140 224° Southwest 496 571 36,000  Level FlightAware ADS-B
Sat 14:46:50 43.7600 -67.8920 224° Southwest 498 573 36,000  Level FlightAware ADS-B
Sat 14:47:26 43.7000 -67.9710 224° Southwest 500 575 36,000  Level FlightAware ADS-B
Sat 14:48:05 43.6340 -68.0590 224° Southwest 502 578 36,000  Level FlightAware ADS-B
Sat 14:48:36 43.5830 -68.1280 224° Southwest 502 578 36,000  Level FlightAware ADS-B
Sat 14:49:10 43.5310 -68.1960 223° Southwest 509 586 36,000  Level FlightAware ADS-B
Sat 14:50:02 43.4490 -68.3030 223° Southwest 511 588 36,000  Level FlightAware ADS-B
Sat 14:50:09 43.5070 -68.2277 43° Northeast 514 592 36,000  Level FlightAware ADS-B (EPKK / KRK)
Sat 14:50:42 43.3680 -68.4110 224° Southwest 513 590 36,000  Level FlightAware ADS-B
Sat 14:51:35 43.2890 -68.5140 224° Southwest 513 590 36,000  Level FlightAware ADS-B
Sat 14:51:37 43.2703 -68.5382 223° Southwest 511 588 36,000  Level FlightAware ADS-B (EPKK / KRK)
Sat 14:52:07 43.2210 -68.6020 223° Southwest 510 587 36,000  Level FlightAware ADS-B
Sat 14:52:13 43.2080 -68.6193 224° Southwest 510 587 36,000  Level FlightAware ADS-B (EPKK / KRK)
Sat 14:52:53 43.1526 -68.6911 223° Southwest 509 586 36,000  Level FlightAware ADS-B (EPKK / KRK)
Sat 14:53:26 43.0840 -68.7800 223° Southwest 507 583 36,000  Level FlightAware ADS-B (EPKK / KRK)
Sat 14:54:15 43.0068 -68.8797 223° Southwest 505 581 36,000  Level FlightAware ADS-B (EPKK / KRK)
Sat 14:54:47 42.9472 -68.9564 223° Southwest 504 580 36,000  Level FlightAware ADS-B (EPKK / KRK)
Sat 14:55:17 42.8991 -69.0182 223° Southwest 503 579 36,000  Level FlightAware ADS-B (EPKK / KRK)
Sat 14:55:58 42.8275 -69.1099 223° Southwest 501 577 36,000  Level FlightAware ADS-B (EPKK / KRK)
Sat 14:56:29 42.7742 -69.1778 223° Southwest 500 575 36,000  Level FlightAware ADS-B (EPKK / KRK)
Sat 14:57:03 42.7182 -69.2491 223° Southwest 499 574 36,000  Level FlightAware ADS-B (EPKK / KRK)
Sat 14:57:59 42.6230 -69.3700 223° Southwest 498 573 36,000  Level FlightAware ADS-B
Sat 14:58:01 42.6455 -69.3414 43° Northeast 498 573 36,000  Level FlightAware ADS-B (EPKK / KRK)
Sat 14:58:36 42.5622 -69.4467 223° Southwest 497 572 36,000  Level FlightAware ADS-B (EPKK / KRK)
Sat 14:59:08 42.5070 -69.5160 223° Southwest 498 573 36,000  Level FlightAware ADS-B
Sat 14:59:29 42.4715 -69.5611 223° Southwest 497 572 36,000  Level FlightAware ADS-B (EPKK / KRK)
Sat 14:59:59 42.4212 -69.6243 223° Southwest 497 572 36,000  Level FlightAware ADS-B (EPKK / KRK)
Sat 15:00:31 42.3692 -69.6894 223° Southwest 495 570 36,000  Level FlightAware ADS-B (EPKK / KRK)
Sat 15:01:01 42.3194 -69.7516 223° Southwest 495 570 36,000  Level FlightAware ADS-B (EPKK / KRK)
Sat 15:01:31 42.2671 -69.8168 223° Southwest 495 570 36,000  Level FlightAware ADS-B (EPKK / KRK)
Sat 15:02:02 42.2162 -69.8802 223° Southwest 495 570 36,000  Level FlightAware ADS-B (EPKK / KRK)
Sat 15:02:32 42.1645 -69.9443 223° Southwest 495 570 36,000  Level FlightAware ADS-B (EPKK / KRK)
Sat 15:03:02 42.1132 -70.0078 223° Southwest 495 570 36,000  Level FlightAware ADS-B (EPKK / KRK)
Sat 15:03:34 42.0612 -70.0720 223° Southwest 493 567 36,000  Level FlightAware ADS-B (EPKK / KRK)
Sat 15:04:15 41.9916 -70.1577 222° Southwest 494 568 36,000  Level FlightAware ADS-B (EPKK / KRK)
Sat 15:04:57 41.9210 -70.2470 223° Southwest 495 570 36,000  Level FlightAware ADS-B
Sat 15:05:03 41.9123 -70.2594 227° Southwest 496 571 36,000  Level FlightAware ADS-B (EPKK / KRK)
Sat 15:05:40 41.8590 -70.3464 231° Southwest 495 570 36,000  Level FlightAware ADS-B (EPKK / KRK)
Sat 15:06:19 41.8046 -70.4431 233° Southwest 496 571 36,000  Level FlightAware ADS-B (EPKK / KRK)
Sat 15:06:50 41.7614 -70.5182 232° Southwest 496 571 36,000  Level FlightAware ADS-B (EPKK / KRK)
Sat 15:07:20 41.7223 -70.5854 232° Southwest 497 572 36,000  Level FlightAware ADS-B (EPKK / KRK)
Sat 15:07:52 41.6745 -70.6676 232° Southwest 497 572 36,000  Level FlightAware ADS-B (EPKK / KRK)
Sat 15:08:25 41.6270 -70.7490 232° Southwest 496 571 36,000  Level FlightAware ADS-B
Sat 15:09:02 41.5750 -70.8380 232° Southwest 495 570 36,000  Level FlightAware ADS-B
Sat 15:09:39 41.5240 -70.9240 232° Southwest 494 568 36,000  Level FlightAware ADS-B
Sat 15:10:14 41.4740 -71.0090 232° Southwest 495 570 36,000  Level FlightAware ADS-B
Sat 15:10:45 41.4310 -71.0820 232° Southwest 497 572 36,000  Level FlightAware ADS-B
Sat 15:11:03 41.4050 -71.1260 232° Southwest 497 572 36,000  Level FlightAware ADS-B
Sat 15:11:54 41.3340 -71.2440 231° Southwest 499 574 36,000  Level FlightAware ADS-B
Sat 15:12:24 41.2910 -71.3160 232° Southwest 498 573 36,000  Level FlightAware ADS-B
Sat 15:13:03 41.2330 -71.4140 232° Southwest 497 572 36,000  Level FlightAware ADS-B
Sat 15:13:39 41.1810 -71.5000 231° Southwest 497 572 36,000  Level FlightAware ADS-B
Sat 15:13:59 41.1716 -71.5166 233° Southwest 498 573 36,000  Level FlightAware ADS-B (KSNC)
Sat 15:14:47 41.0830 -71.6630 231° Southwest 498 573 36,000  Level FlightAware ADS-B
Sat 15:14:56 41.0700 -71.6854 232° Southwest 499 574 36,000  Level FlightAware ADS-B (KSNC)
Sat 15:15:32 41.0193 -71.7692 231° Southwest 498 573 36,000  Level FlightAware ADS-B (KSNC)
Sat 15:16:29 40.9399 -71.9001 231° Southwest 497 572 36,000  Level FlightAware ADS-B (KSNC)
Sat 15:17:00 40.8981 -71.9688 231° Southwest 497 572 36,000  Level FlightAware ADS-B (KSNC)
Sat 15:17:44 40.8290 -72.0810 231° Southwest 497 572 36,000  Level FlightAware ADS-B
Sat 15:17:56 40.8117 -72.1100 232° Southwest 498 573 36,000  Level FlightAware ADS-B (KSNC)
Sat 15:18:37 40.7521 -72.2074 231° Southwest 497 572 36,000  Level FlightAware ADS-B (KSNC)
Sat 15:19:22 40.6869 -72.3136 231° Southwest 495 570 36,000  Level FlightAware ADS-B (KSNC)
Sat 15:19:53 40.6426 -72.3854 231° Southwest 495 570 36,000  Level FlightAware ADS-B (KSNC)
Sat 15:20:24 40.5986 -72.4563 231° Southwest 495 570 36,000  Level FlightAware ADS-B (KSNC)
Sat 15:21:03 40.5412 -72.5488 231° Southwest 495 570 36,000  Level FlightAware ADS-B (KSNC)
Sat 15:21:42 40.4847 -72.6398 231° Southwest 495 570 36,000  Level FlightAware ADS-B (KSNC)
Sat 15:22:23 40.4248 -72.7357 231° Southwest 494 568 36,000  Level FlightAware ADS-B (KSNC)
Sat 15:23:04 40.3656 -72.8303 231° Southwest 492 566 36,000  Level FlightAware ADS-B (KSNC)
Sat 15:23:45 40.3085 -72.9213 231° Southwest 493 567 36,000  Level FlightAware ADS-B (KSNC)
Sat 15:24:34 40.2351 -73.0378 230° Southwest 495 570 36,000  Level FlightAware ADS-B (KSNC)
Sat 15:25:04 40.1925 -73.1052 230° Southwest 497 572 36,000  Level FlightAware ADS-B (KSNC)
Sat 15:25:53 40.1207 -73.2183 230° Southwest 497 572 36,000  Level FlightAware ADS-B (KSNC)
Sat 15:26:28 40.0630 -73.2930 225° Southwest 497 572 36,000  Level FlightAware ADS-B
Sat 15:26:52 40.0212 -73.3386 220° Southwest 497 572 36,000  Level FlightAware ADS-B (KSNC)
Sat 15:27:38 39.9430 -73.4290 222° Southwest 495 570 36,000  Level FlightAware ADS-B
Sat 15:28:10 39.8865 -73.4936 221° Southwest 495 570 36,000  Level FlightAware ADS-B (KSNC)
Sat 15:28:46 39.8270 -73.5600 221° Southwest 496 571 36,000  Level FlightAware ADS-B
Sat 15:29:21 39.7631 -73.6308 220° Southwest 499 574 36,000  Level FlightAware ADS-B (KSNC)
Sat 15:29:58 39.7010 -73.7000 221° Southwest 498 573 36,000  Level FlightAware ADS-B
Sat 15:30:34 39.6370 -73.7700 220° Southwest 500 575 36,000  Level FlightAware ADS-B
Sat 15:31:07 39.5780 -73.8350 220° Southwest 499 574 36,000  Level FlightAware ADS-B
Sat 15:31:42 39.5220 -73.8970 221° Southwest 497 572 36,000  Level FlightAware ADS-B
Sat 15:32:20 39.4500 -73.9760 220° Southwest 495 570 36,000  Level FlightAware ADS-B
Sat 15:32:55 39.3910 -74.0410 220° Southwest 493 567 36,000  Level FlightAware ADS-B
Sat 15:33:27 39.3360 -74.1010 220° Southwest 492 566 36,000  Level FlightAware ADS-B
Sat 15:34:06 39.2650 -74.1780 220° Southwest 490 564 36,000  Level FlightAware ADS-B
Sat 15:34:31 39.2390 -74.2070 221° Southwest 489 563 36,000  Level FlightAware ADS-B
Sat 15:35:13 39.1510 -74.3020 220° Southwest 491 565 36,000  Level FlightAware ADS-B
Sat 15:35:46 39.0940 -74.3640 220° Southwest 491 565 36,000  Level FlightAware ADS-B
Sat 15:36:24 39.0270 -74.4370 220° Southwest 492 566 36,000  Level FlightAware ADS-B
Sat 15:37:03 38.9570 -74.5110 219° Southwest 494 568 36,000  Level FlightAware ADS-B
Sat 15:37:40 38.9010 -74.5720 220° Southwest 495 570 36,000  Level FlightAware ADS-B
Sat 15:38:16 38.8400 -74.6370 220° Southwest 489 563 36,000  Level FlightAware ADS-B
Sat 15:38:56 38.7590 -74.7230 220° Southwest 496 571 36,000  Level FlightAware ADS-B
Sat 15:39:32 38.6980 -74.7880 220° Southwest 497 572 36,000  Level FlightAware ADS-B
Sat 15:40:07 38.6340 -74.8570 220° Southwest 499 574 36,000  Level FlightAware ADS-B
Sat 15:40:43 38.5690 -74.9260 220° Southwest 502 578 36,000  Level FlightAware ADS-B
Sat 15:41:18 38.5070 -74.9920 220° Southwest 502 578 36,000  Level FlightAware ADS-B
Sat 15:41:47 38.4560 -75.0450 219° Southwest 504 580 36,000  Level FlightAware ADS-B
Sat 15:42:26 38.3840 -75.1220 220° Southwest 504 580 36,000  Level FlightAware ADS-B
Sat 15:43:05 38.3170 -75.1910 219° Southwest 507 583 36,000  Level FlightAware ADS-B
Sat 15:43:37 38.2590 -75.2530 220° Southwest 510 587 36,000  Level FlightAware ADS-B
Sat 15:44:12 38.1940 -75.3210 219° Southwest 512 589 36,000  Level FlightAware ADS-B
Sat 15:44:57 38.1130 -75.4060 220° Southwest 509 586 36,000  Level FlightAware ADS-B
Sat 15:45:27 38.0550 -75.4620 217° Southwest 511 588 36,000  Level FlightAware ADS-B
Sat 15:46:04 37.9810 -75.5140 209° Southwest 512 589 36,000  Level FlightAware ADS-B
Sat 15:46:38 37.9080 -75.5640 208° Southwest 513 590 36,000  Level FlightAware ADS-B
Sat 15:47:11 37.8350 -75.6140 208° Southwest 514 592 36,000  Level FlightAware ADS-B
Sat 15:47:51 37.7510 -75.6720 209° Southwest 514 592 36,000  Level FlightAware ADS-B
Sat 15:48:26 37.6770 -75.7220 208° Southwest 514 592 36,000  Level FlightAware ADS-B
Sat 15:48:56 37.6160 -75.7640 209° Southwest 514 592 36,000  Level FlightAware ADS-B
Sat 15:49:36 37.5310 -75.8210 208° Southwest 514 592 36,000  Level FlightAware ADS-B
Sat 15:50:06 37.4660 -75.8650 208° Southwest 513 590 36,000  Level FlightAware ADS-B
Sat 15:50:49 37.3750 -75.9270 208° Southwest 512 589 36,000  Level FlightAware ADS-B
Sat 15:51:27 37.2980 -75.9780 208° Southwest 513 590 36,000  Level FlightAware ADS-B
Sat 15:52:02 37.2250 -76.0270 208° Southwest 515 593 36,000  Level FlightAware ADS-B
Sat 15:52:37 37.1450 -76.0810 208° Southwest 516 594 36,000  Level FlightAware ADS-B
Sat 15:53:18 37.0550 -76.1410 208° Southwest 516 594 36,000  Level FlightAware ADS-B
Sat 15:53:53 36.9840 -76.1880 208° Southwest 526 605 36,000  Level FlightAware ADS-B
Sat 15:54:26 36.9100 -76.2370 208° Southwest 525 604 36,000  Level FlightAware ADS-B
Sat 15:55:09 36.8200 -76.2970 208° Southwest 525 604 36,000  Level FlightAware ADS-B
Sat 15:55:46 36.7370 -76.3520 208° Southwest 526 605 36,000  Level FlightAware ADS-B
Sat 15:56:19 36.6690 -76.3970 208° Southwest 525 604 36,000  Level FlightAware ADS-B
Sat 15:57:06 36.5790 -76.4550 207° Southwest 525 604 36,000  Level FlightAware ADS-B
Sat 15:57:44 36.4830 -76.5190 208° Southwest 523 602 36,000  Level FlightAware ADS-B
Sat 15:58:27 36.4020 -76.5710 207° Southwest 524 603 36,000  Level FlightAware ADS-B
Sat 15:59:01 36.3400 -76.6100 207° Southwest 524 603 36,000  Level FlightAware ADS-B
Sat 15:59:38 36.2720 -76.6530 207° Southwest 524 603 36,000  Level FlightAware ADS-B
Sat 16:00:14 36.2060 -76.6950 207° Southwest 524 603 36,000  Level FlightAware ADS-B
Sat 16:00:50 36.1400 -76.7370 207° Southwest 524 603 36,000  Level FlightAware ADS-B
Sat 16:01:42 35.9820 -76.8440 209° Southwest 527 606 36,000  Level FlightAware ADS-B
Sat 16:02:19 35.9140 -76.8870 207° Southwest 527 606 36,000  Level FlightAware ADS-B
Sat 16:02:55 35.8480 -76.9290 207° Southwest 527 606 36,000  Level FlightAware ADS-B
Sat 16:03:32 35.7790 -76.9720 207° Southwest 527 606 36,000  Level FlightAware ADS-B
Sat 16:04:08 35.7130 -77.0130 207° Southwest 527 606 36,000  Level FlightAware ADS-B
Sat 16:04:54 35.6280 -77.0670 207° Southwest 527 606 36,000  Level FlightAware ADS-B
Sat 16:05:28 35.4890 -77.1610 209° Southwest 529 609 36,000  Level FlightAware ADS-B
Sat 16:06:13 35.3840 -77.2280 207° Southwest 527 606 36,000  Level FlightAware ADS-B
Sat 16:07:03 35.2890 -77.2880 207° Southwest 527 606 36,000  Level FlightAware ADS-B
Sat 16:07:42 35.1900 -77.3510 207° Southwest 525 604 36,000  Level FlightAware ADS-B
Sat 16:08:12 35.1250 -77.3920 207° Southwest 524 603 36,000  Level FlightAware ADS-B
Sat 16:08:46 35.0650 -77.4290 207° Southwest 523 602 36,000  Level FlightAware ADS-B
Sat 16:09:22 34.9750 -77.4640 198° South 524 603 36,000  Level FlightAware ADS-B
Sat 16:10:02 34.8800 -77.4970 196° South 524 603 36,000  Level FlightAware ADS-B
Sat 16:10:32 34.8100 -77.5220 196° South 524 603 36,000  Level FlightAware ADS-B
Sat 16:11:26 34.7180 -77.5540 196° South 524 603 36,000  Level FlightAware ADS-B
Sat 16:11:56 34.6440 -77.5810 197° South 523 602 36,000  Level FlightAware ADS-B
Sat 16:12:31 34.5580 -77.6110 196° South 523 602 36,000  Level FlightAware ADS-B
Sat 16:13:06 34.4790 -77.6380 196° South 522 601 36,000  Level FlightAware ADS-B
Sat 16:13:41 34.4010 -77.6660 196° South 521 600 36,000  Level FlightAware ADS-B
Sat 16:14:21 34.3130 -77.6970 196° South 521 600 36,000  Level FlightAware ADS-B
Sat 16:14:51 34.2420 -77.7210 196° South 521 600 36,000  Level FlightAware ADS-B
Sat 16:15:26 34.1650 -77.7480 196° South 522 601 36,000  Level FlightAware ADS-B
Sat 16:16:01 34.0840 -77.7760 196° South 522 601 36,000  Level FlightAware ADS-B
Sat 16:16:41 33.9850 -77.8110 196° South 521 600 36,000  Level FlightAware ADS-B
Sat 16:17:12 33.9150 -77.8350 196° South 522 601 36,000  Level FlightAware ADS-B
Sat 16:17:51 33.8150 -77.8690 196° South 522 601 36,000  Level FlightAware ADS-B
Sat 16:18:26 33.7470 -77.8930 196° South 522 601 36,000  Level FlightAware ADS-B
Sat 16:18:56 33.6720 -77.9190 196° South 523 602 36,000  Level FlightAware ADS-B
Sat 16:19:31 33.5860 -77.9480 196° South 523 602 36,000  Level FlightAware ADS-B
Sat 16:20:06 33.5070 -77.9750 196° South 523 602 36,000  Level FlightAware ADS-B
Sat 16:20:46 33.4140 -78.0070 196° South 523 602 36,000  Level FlightAware ADS-B
Sat 16:21:16 33.3450 -78.0310 196° South 523 602 36,000  Level FlightAware ADS-B
Sat 16:21:56 33.2530 -78.0620 196° South 522 601 36,000  Level FlightAware ADS-B
Sat 16:22:36 33.1250 -78.1060 196° South 521 600 36,000  Level FlightAware ADS-B
Sat 16:24:01 32.9280 -78.1720 196° South 519 597 36,000  Level FlightAware ADS-B
Sat 16:24:36 32.8490 -78.1990 196° South 518 596 36,000  Level FlightAware ADS-B
Sat 16:25:16 32.7540 -78.2310 196° South 518 596 36,000  Level FlightAware ADS-B
Sat 16:26:01 32.6580 -78.2620 195° South 518 596 36,000  Level FlightAware ADS-B
Sat 16:26:31 32.5820 -78.2890 197° South 519 597 36,000  Level FlightAware ADS-B
Sat 16:27:06 32.5070 -78.3140 196° South 519 597 36,000  Level FlightAware ADS-B
Sat 16:27:46 32.4120 -78.3460 196° South 518 596 36,000  Level FlightAware ADS-B
Sat 16:28:26 32.3160 -78.3780 196° South 517 595 36,000  Level FlightAware ADS-B
Sat 16:29:01 32.2380 -78.4040 196° South 516 594 36,000  Level FlightAware ADS-B
Sat 16:29:38 32.1650 -78.4270 195° South 516 594 36,000  Level FlightAware ADS-B
Sat 16:30:14 32.0950 -78.4490 195° South 516 594 36,000  Level FlightAware ADS-B
Sat 16:30:50 32.0240 -78.4710 195° South 516 594 36,000  Level FlightAware ADS-B
Sat 16:31:26 31.9540 -78.4930 195° South 516 594 36,000  Level FlightAware ADS-B
Sat 16:32:02 31.8830 -78.5160 195° South 516 594 36,000  Level FlightAware ADS-B
Sat 16:32:38 31.8130 -78.5380 195° South 516 594 36,000  Level FlightAware ADS-B
Sat 16:33:30 31.6260 -78.6050 197° South 514 592 36,000  Level FlightAware ADS-B
Sat 16:34:06 31.5560 -78.6270 195° South 514 592 36,000  Level FlightAware ADS-B
Sat 16:34:43 31.4830 -78.6500 195° South 514 592 36,000  Level FlightAware ADS-B
Sat 16:35:19 31.4130 -78.6720 195° South 514 592 36,000  Level FlightAware ADS-B
Sat 16:35:55 31.3430 -78.6940 195° South 514 592 36,000  Level FlightAware ADS-B
Sat 16:36:31 31.2730 -78.7160 195° South 514 592 36,000  Level FlightAware ADS-B
Sat 16:37:07 31.2020 -78.7380 195° South 514 592 36,000  Level FlightAware ADS-B
Sat 16:37:44 31.1300 -78.7600 195° South 514 592 36,000  Level FlightAware ADS-B
Sat 16:38:30 31.0400 -78.7890 195° South 514 592 36,000  Level FlightAware ADS-B
Sat 16:39:07 30.9680 -78.8110 195° South 514 592 36,000  Level FlightAware ADS-B
Sat 16:39:43 30.8980 -78.8330 195° South 514 592 36,000  Level FlightAware ADS-B
Sat 16:40:19 30.8270 -78.8550 195° South 514 592 36,000  Level FlightAware ADS-B
Sat 16:40:56 30.7550 -78.8780 195° South 514 592 36,000  Level FlightAware ADS-B
Sat 16:41:32 30.6850 -78.8990 194° South 514 592 36,000  Level FlightAware ADS-B
Sat 16:42:08 30.6150 -78.9210 195° South 514 592 36,000  Level FlightAware ADS-B
Sat 16:42:44 30.5440 -78.9430 195° South 514 592 36,000  Level FlightAware ADS-B
Sat 16:44:03 30.1836 -79.0994 195° South 525 604 36,000  Level Miami Center
Sat 16:45:03 30.0492 -79.1542 199° South 518 596 36,000  Level Miami Center
Sat 16:46:03 29.9192 -79.2064 199° South 518 596 36,000  Level Miami Center
Sat 16:47:03 29.7869 -79.2608 200° South 506 582 36,000  Level Miami Center
Sat 16:52:27 29.0420 -79.5340 200° South 506 582 36,000  Level FlightAware ADS-B
Sat 16:53:11 28.9620 -79.5640 198° South 506 582 36,000  Level FlightAware ADS-B
Sat 16:53:47 28.8940 -79.5890 198° South 506 582 36,000  Level FlightAware ADS-B
Sat 16:54:22 28.7830 -79.6310 198° South 505 581 36,000  Level FlightAware ADS-B
Sat 16:54:57 28.7040 -79.6610 198° South 511 588 36,000  Level FlightAware ADS-B
Sat 16:55:32 28.6230 -79.6910 198° South 505 581 36,000  Level FlightAware ADS-B
Sat 16:56:07 28.5440 -79.7200 198° South 505 581 36,000  Level FlightAware ADS-B
Sat 16:56:37 28.4780 -79.7450 198° South 505 581 36,000  Level FlightAware ADS-B
Sat 16:57:07 28.4070 -79.7710 198° South 505 581 36,000  Level FlightAware ADS-B
Sat 16:57:42 28.3290 -79.8000 198° South 505 581 36,000  Level FlightAware ADS-B
Sat 16:58:22 28.2390 -79.8340 198° South 511 588 36,000  Level FlightAware ADS-B
Sat 16:58:52 28.1750 -79.8570 198° South 511 588 36,000  Level FlightAware ADS-B
Sat 16:59:27 28.0940 -79.8870 198° South 511 588 36,000  Level FlightAware ADS-B
Sat 17:00:07 28.0110 -79.9170 198° South 504 580 36,000  Level FlightAware ADS-B
Sat 17:00:42 27.9240 -79.9500 199° South 504 580 36,000  Level FlightAware ADS-B
Sat 17:01:12 27.8580 -79.9740 198° South 504 580 36,000  Level FlightAware ADS-B
Sat 17:01:49 27.7780 -80.0030 198° South 511 588 36,000  Level FlightAware ADS-B
Sat 17:02:22 27.7010 -80.0310 198° South 511 588 36,000  Level FlightAware ADS-B
Sat 17:03:02 27.6070 -80.0660 198° South 511 588 36,000  Level FlightAware ADS-B
Sat 17:03:32 27.5480 -80.0870 198° South 511 588 36,000  Level FlightAware ADS-B
Sat 17:04:11 27.4530 -80.1220 198° South 510 587 36,000  Level FlightAware ADS-B
Sat 17:04:37 27.3980 -80.1420 198° South 508 585 36,000  Level FlightAware ADS-B
Sat 17:05:12 27.3170 -80.1710 198° South 509 586 36,000  Level FlightAware ADS-B
Sat 17:05:52 27.2310 -80.2130 203° Southwest 498 573 36,000  Level FlightAware ADS-B
Sat 17:06:22 27.1710 -80.2510 209° Southwest 497 572 36,000  Level FlightAware ADS-B
Sat 17:06:56 27.0990 -80.2950 209° Southwest 496 571 36,000  Level FlightAware ADS-B
Sat 17:07:32 27.0270 -80.3400 209° Southwest 496 571 36,000  Level FlightAware ADS-B
Sat 17:08:11 26.9510 -80.3870 209° Southwest 495 570 36,000  Level FlightAware ADS-B
Sat 17:08:51 26.8660 -80.4400 209° Southwest 496 571 36,000  Level FlightAware ADS-B
Sat 17:09:25 26.7950 -80.4840 209° Southwest 497 572 36,000  Level FlightAware ADS-B
Sat 17:10:01 26.7250 -80.5280 209° Southwest 498 573 36,000  Level FlightAware ADS-B
Sat 17:10:35 26.6540 -80.5730 210° Southwest 497 572 36,000  Level FlightAware ADS-B
Sat 17:10:56 26.6130 -80.5990 210° Southwest 497 572 36,000  Level FlightAware ADS-B
Sat 17:11:41 26.5190 -80.6580 209° Southwest 503 579 36,000  Level FlightAware ADS-B
Sat 17:12:16 26.4510 -80.7020 210° Southwest 501 577 36,000  Level FlightAware ADS-B
Sat 17:12:51 26.3770 -80.7490 210° Southwest 501 577 36,000  Level FlightAware ADS-B
Sat 17:13:31 26.3040 -80.8080 216° Southwest 497 572 36,000  Level FlightAware ADS-B
Sat 17:14:01 26.2480 -80.8550 217° Southwest 499 574 36,000  Level FlightAware ADS-B
Sat 17:14:41 26.1740 -80.9160 216° Southwest 502 578 36,000  Level FlightAware ADS-B
Sat 17:15:11 26.1170 -80.9630 217° Southwest 498 573 36,000  Level FlightAware ADS-B
Sat 17:15:46 26.0560 -81.0070 213° Southwest 504 580 36,000  Level FlightAware ADS-B
Sat 17:16:21 25.9810 -81.0640 214° Southwest 496 571 36,000  Level FlightAware ADS-B
Sat 17:17:01 25.9050 -81.1210 214° Southwest 502 578 36,000  Level FlightAware ADS-B
Sat 17:17:35 25.8380 -81.1710 214° Southwest 504 580 36,000  Level FlightAware ADS-B
Sat 17:18:06 25.7780 -81.2160 214° Southwest 505 581 36,000  Level FlightAware ADS-B
Sat 17:18:42 25.7090 -81.2680 214° Southwest 504 580 36,000  Level FlightAware ADS-B
Sat 17:19:17 25.6420 -81.3180 214° Southwest 504 580 36,000  Level FlightAware ADS-B
Sat 17:19:57 25.5640 -81.3760 214° Southwest 502 578 36,000  Level FlightAware ADS-B
Sat 17:20:27 25.5070 -81.4180 214° Southwest 502 578 36,000  Level FlightAware ADS-B
Sat 17:21:02 25.4380 -81.4690 214° Southwest 502 578 36,000  Level FlightAware ADS-B
Sat 17:21:42 25.3610 -81.5260 214° Southwest 501 577 36,000 -171 Level FlightAware ADS-B
Sat 17:22:12 25.3040 -81.5680 214° Southwest 500 575 35,800 -646 Descending FlightAware ADS-B
Sat 17:22:47 25.2380 -81.6170 214° Southwest 503 579 35,300 -1,000 Descending FlightAware ADS-B
Sat 17:23:24 25.1680 -81.6690 214° Southwest 502 578 34,600 -1,200 Descending FlightAware ADS-B
Sat 17:24:02 25.0910 -81.7250 213° Southwest 508 585 33,800 -1,235 Descending FlightAware ADS-B
Sat 17:24:32 25.0310 -81.7690 214° Southwest 503 579 33,200 -1,200 Descending FlightAware ADS-B
Sat 17:25:07 24.9630 -81.8190 214° Southwest 502 578 32,500 -1,200 Descending FlightAware ADS-B
Sat 17:25:37 24.9050 -81.8600 213° Southwest 489 563 31,900 -1,440 Descending FlightAware ADS-B
Sat 17:25:57 24.8620 -81.8760 199° South 493 567 31,300 -1,941 Descending FlightAware ADS-B
Sat 17:26:11 24.8290 -81.8790 185° South 482 555 30,800 -1,800 Descending FlightAware ADS-B
Sat 17:26:47 24.7490 -81.8750 177° South 480 552 29,800 -1,652 Descending FlightAware ADS-B
Sat 17:27:20 24.6770 -81.8700 176° South 465 535 28,900 -1,701 Descending FlightAware ADS-B
Sat 17:27:54 24.6030 -81.8640 176° South 465 535 27,900 -1,520 Descending FlightAware ADS-B
Sat 17:28:35 24.5210 -81.8720 185° South 440 506 27,000 -1,500 Descending FlightAware ADS-B
Sat 17:28:50 24.4900 -81.8870 204° Southwest 441 507 26,500 -1,875 Descending FlightAware ADS-B
Sat 17:29:07 24.4630 -81.9100 218° Southwest 428 493 26,000 -1,385 Descending FlightAware ADS-B
Sat 17:29:42 24.4200 -81.9670 230° Southwest 409 471 25,300 -1,385 Descending FlightAware ADS-B
Sat 17:30:12 24.3870 -82.0090 229° Southwest 404 465 24,500 -2,301 Descending FlightAware ADS-B
Sat 17:30:55 24.3300 -82.0850 231° Southwest 413 475 22,500 -1,667 Descending FlightAware ADS-B
Sat 17:31:42 24.2810 -82.1500 230° Southwest 409 471 22,000 -1,533 Descending FlightAware ADS-B
Sat 17:32:25 24.2240 -82.2250 230° Southwest 389 448 20,200 -1,350 Descending FlightAware ADS-B
Sat 17:33:02 24.1880 -82.2730 231° Southwest 389 448 20,200  Level FlightAware ADS-B
Sat 17:33:38 24.1540 -82.3200 232° Southwest 389 448 20,200  Level FlightAware ADS-B
Sat 17:34:14 24.1190 -82.3670 231° Southwest 389 448 20,200  Level FlightAware ADS-B
Sat 17:34:48 24.0860 -82.4110 231° Southwest 389 448 20,200  Level FlightAware ADS-B
Sat 17:35:25 24.0500 -82.4590 231° Southwest 389 448 20,200  Level FlightAware ADS-B
Sat 17:36:01 24.0160 -82.5060 232° Southwest 389 448 20,200  Level FlightAware ADS-B
Sat 17:42:00 23.2599 -82.4141 177° South  Level FlightAware Approximate
Sat 17:43:00 23.1336 -82.4080 177° South  Level FlightAware Approximate
Sat 17:44:00 23.0072 -82.4019 177° South  Level FlightAware Approximate
Sat 17:45:00 22.9891 -82.4091 177° South  Level Estimated
Sat 17:46:00 22.9891 -82.4091 177° South  Level Estimated
Sat 17:47:00 22.9891 -82.4091 177° South  Level Estimated
Sat 17:48:00 22.9891 -82.4091 177° South  Level Estimated
Sat 17:49:00 22.9891 -82.4091 177° South  Level Estimated
Sat 17:50:00 22.9891 -82.4091 177° South  Level Estimated
Sat 17:51:00 22.9891 -82.4091 177° South  Level Estimated
Sat 17:52:00 22.9891 -82.4091 177° South  Level Estimated
Sat 17:53:00 22.9891 -82.4091 177° South  Level Estimated
Sat 17:54:00 22.9891 -82.4091 177° South  Level Estimated
Sat 17:55:00 22.9891 -82.4091 177° South  Level Estimated
Sat 17:56:00 22.9891 -82.4091 177° South  Level Estimated
Sat 17:57:00 22.9891 -82.4091 177° South  Level Estimated
Sat 17:58:00 22.9891 -82.4091 177° South  Level Estimated
Sat 17:59:00 22.9891 -82.4091 177° South  Level Estimated
Sat 18:00:00 22.9891 -82.4091 177° South  Level Estimated
Sat 18:01:00 22.9891 -82.4091 177° South  Level Estimated
Sat 18:02:00 22.9891 -82.4091 177° South  Level Estimated
Sat 18:03:00 22.9891 -82.4091 177° South  Level Estimated
Sat 18:04:00 22.9891 -82.4091 177° South  Level Estimated
Sat 18:05:00 22.9891 -82.4091 177° South  Level Estimated

Login

Don't have an account? Register now (free) for customized features, flight alerts, and more!